<?xml version="1.0" encoding="UTF-8" standalone="no" ?>
<gpx xmlns="http://www.topografix.com/GPX/1/1" xmlns:xsi="http://www.w3.org/2001/XMLSchema-instance" xsi:schemaLocation="http://www.topografix.com/GPX/1/1 http://www.topografix.com/GPX/1/1/gpx.xsd" version="1.1" creator="VisuGPX - https://www.visugpx.com">
  <metadata>
    <name> RSPG L'Epine circuit de Clamorand: 17 MAI 2022 10:09</name>
    <desc><![CDATA[Se garer à L'Epine sur le parking au bord de la route en face l'Hôtel. Prendre ensuite le sentier qui mène à Clamorand traverser le hameau et continuer sur le sentier pour parcourir une boucle qui par les lieux-dits de Juliac et la Rouvière permet de revenir au parking de départ. ]]></desc>
  </metadata>
  <trk>
    <name><![CDATA[L'Epine cicuit de Clamorand: 17 MAI 2022 10:09]]></name>
    <trkseg>
      <trkpt lat="44.41559" lon="5.61359">
        <ele>797.55</ele>
        <time>2022-05-17T08:09:00Z</time>
      </trkpt>
      <trkpt lat="44.41558" lon="5.61358">
        <ele>799.47</ele>
        <time>2022-05-17T08:09:01Z</time>
      </trkpt>
      <trkpt lat="44.41558" lon="5.61352">
        <ele>803.8</ele>
        <time>2022-05-17T08:09:05Z</time>
      </trkpt>
      <trkpt lat="44.41558" lon="5.61345">
        <ele>807.64</ele>
        <time>2022-05-17T08:09:10Z</time>
      </trkpt>
      <trkpt lat="44.41555" lon="5.61339">
        <ele>811.01</ele>
        <time>2022-05-17T08:09:15Z</time>
      </trkpt>
      <trkpt lat="44.41554" lon="5.6133">
        <ele>813.89</ele>
        <time>2022-05-17T08:09:22Z</time>
      </trkpt>
      <trkpt lat="44.41553" lon="5.61326">
        <ele>815.34</ele>
        <time>2022-05-17T08:09:25Z</time>
      </trkpt>
      <trkpt lat="44.41552" lon="5.61316">
        <ele>818.7</ele>
        <time>2022-05-17T08:09:34Z</time>
      </trkpt>
      <trkpt lat="44.41551" lon="5.61309">
        <ele>822.06</ele>
        <time>2022-05-17T08:09:41Z</time>
      </trkpt>
      <trkpt lat="44.4155" lon="5.61311">
        <ele>825.43</ele>
        <time>2022-05-17T08:09:53Z</time>
      </trkpt>
      <trkpt lat="44.41549" lon="5.61314">
        <ele>929.25</ele>
        <time>2022-05-17T08:10:14Z</time>
      </trkpt>
      <trkpt lat="44.41549" lon="5.61314">
        <ele>828.31</ele>
        <time>2022-05-17T08:10:17Z</time>
      </trkpt>
      <trkpt lat="44.4155" lon="5.61314">
        <ele>828.31</ele>
        <time>2022-05-17T08:10:18Z</time>
      </trkpt>
      <trkpt lat="44.4155" lon="5.61305">
        <ele>828.31</ele>
        <time>2022-05-17T08:10:30Z</time>
      </trkpt>
      <trkpt lat="44.41548" lon="5.61284">
        <ele>829.27</ele>
        <time>2022-05-17T08:10:45Z</time>
      </trkpt>
      <trkpt lat="44.41549" lon="5.61267">
        <ele>829.27</ele>
        <time>2022-05-17T08:11:00Z</time>
      </trkpt>
      <trkpt lat="44.41549" lon="5.61253">
        <ele>829.76</ele>
        <time>2022-05-17T08:11:14Z</time>
      </trkpt>
      <trkpt lat="44.41551" lon="5.61234">
        <ele>829.76</ele>
        <time>2022-05-17T08:11:30Z</time>
      </trkpt>
      <trkpt lat="44.41554" lon="5.61208">
        <ele>830.72</ele>
        <time>2022-05-17T08:11:49Z</time>
      </trkpt>
      <trkpt lat="44.41556" lon="5.61184">
        <ele>831.2</ele>
        <time>2022-05-17T08:12:06Z</time>
      </trkpt>
      <trkpt lat="44.41558" lon="5.61159">
        <ele>831.68</ele>
        <time>2022-05-17T08:12:26Z</time>
      </trkpt>
      <trkpt lat="44.4156" lon="5.61142">
        <ele>832.16</ele>
        <time>2022-05-17T08:12:41Z</time>
      </trkpt>
      <trkpt lat="44.41551" lon="5.61135">
        <ele>832.16</ele>
        <time>2022-05-17T08:12:53Z</time>
      </trkpt>
      <trkpt lat="44.41543" lon="5.61123">
        <ele>832.16</ele>
        <time>2022-05-17T08:13:10Z</time>
      </trkpt>
      <trkpt lat="44.41546" lon="5.61112">
        <ele>834.08</ele>
        <time>2022-05-17T08:13:25Z</time>
      </trkpt>
      <trkpt lat="44.41548" lon="5.61104">
        <ele>835.52</ele>
        <time>2022-05-17T08:13:41Z</time>
      </trkpt>
      <trkpt lat="44.41549" lon="5.61096">
        <ele>836.96</ele>
        <time>2022-05-17T08:13:53Z</time>
      </trkpt>
      <trkpt lat="44.41542" lon="5.6109">
        <ele>838.89</ele>
        <time>2022-05-17T08:14:07Z</time>
      </trkpt>
      <trkpt lat="44.41535" lon="5.61084">
        <ele>840.33</ele>
        <time>2022-05-17T08:14:21Z</time>
      </trkpt>
      <trkpt lat="44.4153" lon="5.61078">
        <ele>841.77</ele>
        <time>2022-05-17T08:14:34Z</time>
      </trkpt>
      <trkpt lat="44.41526" lon="5.61068">
        <ele>843.21</ele>
        <time>2022-05-17T08:14:47Z</time>
      </trkpt>
      <trkpt lat="44.41524" lon="5.61055">
        <ele>844.18</ele>
        <time>2022-05-17T08:15:03Z</time>
      </trkpt>
      <trkpt lat="44.41517" lon="5.61044">
        <ele>844.66</ele>
        <time>2022-05-17T08:15:18Z</time>
      </trkpt>
      <trkpt lat="44.41517" lon="5.61032">
        <ele>844.66</ele>
        <time>2022-05-17T08:15:30Z</time>
      </trkpt>
      <trkpt lat="44.41517" lon="5.61015">
        <ele>845.14</ele>
        <time>2022-05-17T08:15:45Z</time>
      </trkpt>
      <trkpt lat="44.41516" lon="5.60998">
        <ele>845.14</ele>
        <time>2022-05-17T08:15:59Z</time>
      </trkpt>
      <trkpt lat="44.41517" lon="5.60981">
        <ele>846.1</ele>
        <time>2022-05-17T08:16:15Z</time>
      </trkpt>
      <trkpt lat="44.41517" lon="5.60968">
        <ele>846.58</ele>
        <time>2022-05-17T08:16:26Z</time>
      </trkpt>
      <trkpt lat="44.41519" lon="5.60946">
        <ele>847.06</ele>
        <time>2022-05-17T08:16:43Z</time>
      </trkpt>
      <trkpt lat="44.41526" lon="5.60929">
        <ele>847.54</ele>
        <time>2022-05-17T08:17:01Z</time>
      </trkpt>
      <trkpt lat="44.41533" lon="5.60915">
        <ele>848.02</ele>
        <time>2022-05-17T08:17:18Z</time>
      </trkpt>
      <trkpt lat="44.4154" lon="5.60901">
        <ele>848.02</ele>
        <time>2022-05-17T08:17:33Z</time>
      </trkpt>
      <trkpt lat="44.41549" lon="5.60884">
        <ele>847.54</ele>
        <time>2022-05-17T08:17:52Z</time>
      </trkpt>
      <trkpt lat="44.41555" lon="5.6087">
        <ele>846.1</ele>
        <time>2022-05-17T08:18:07Z</time>
      </trkpt>
      <trkpt lat="44.41558" lon="5.60853">
        <ele>845.62</ele>
        <time>2022-05-17T08:18:23Z</time>
      </trkpt>
      <trkpt lat="44.4155" lon="5.60834">
        <ele>844.66</ele>
        <time>2022-05-17T08:18:40Z</time>
      </trkpt>
      <trkpt lat="44.41543" lon="5.6082">
        <ele>846.1</ele>
        <time>2022-05-17T08:18:57Z</time>
      </trkpt>
      <trkpt lat="44.41541" lon="5.60802">
        <ele>847.06</ele>
        <time>2022-05-17T08:19:12Z</time>
      </trkpt>
      <trkpt lat="44.41541" lon="5.60783">
        <ele>848.02</ele>
        <time>2022-05-17T08:19:28Z</time>
      </trkpt>
      <trkpt lat="44.41542" lon="5.60769">
        <ele>848.5</ele>
        <time>2022-05-17T08:19:40Z</time>
      </trkpt>
      <trkpt lat="44.41544" lon="5.60751">
        <ele>848.98</ele>
        <time>2022-05-17T08:19:55Z</time>
      </trkpt>
      <trkpt lat="44.41546" lon="5.60733">
        <ele>849.94</ele>
        <time>2022-05-17T08:20:11Z</time>
      </trkpt>
      <trkpt lat="44.41547" lon="5.6071">
        <ele>850.9</ele>
        <time>2022-05-17T08:20:32Z</time>
      </trkpt>
      <trkpt lat="44.41547" lon="5.60694">
        <ele>852.35</ele>
        <time>2022-05-17T08:20:48Z</time>
      </trkpt>
      <trkpt lat="44.41546" lon="5.60671">
        <ele>853.31</ele>
        <time>2022-05-17T08:21:07Z</time>
      </trkpt>
      <trkpt lat="44.41544" lon="5.60667">
        <ele>853.31</ele>
        <time>2022-05-17T08:21:11Z</time>
      </trkpt>
      <trkpt lat="44.4154" lon="5.60647">
        <ele>853.79</ele>
        <time>2022-05-17T08:21:27Z</time>
      </trkpt>
      <trkpt lat="44.4154" lon="5.6062">
        <ele>853.31</ele>
        <time>2022-05-17T08:21:47Z</time>
      </trkpt>
      <trkpt lat="44.41541" lon="5.60604">
        <ele>853.31</ele>
        <time>2022-05-17T08:21:58Z</time>
      </trkpt>
      <trkpt lat="44.41533" lon="5.60589">
        <ele>853.79</ele>
        <time>2022-05-17T08:22:13Z</time>
      </trkpt>
      <trkpt lat="44.41522" lon="5.60578">
        <ele>852.83</ele>
        <time>2022-05-17T08:22:29Z</time>
      </trkpt>
      <trkpt lat="44.41519" lon="5.60577">
        <ele>852.35</ele>
        <time>2022-05-17T08:22:32Z</time>
      </trkpt>
      <trkpt lat="44.41507" lon="5.60567">
        <ele>850.42</ele>
        <time>2022-05-17T08:22:50Z</time>
      </trkpt>
      <trkpt lat="44.41496" lon="5.60551">
        <ele>847.54</ele>
        <time>2022-05-17T08:23:08Z</time>
      </trkpt>
      <trkpt lat="44.41484" lon="5.60533">
        <ele>846.1</ele>
        <time>2022-05-17T08:23:28Z</time>
      </trkpt>
      <trkpt lat="44.41477" lon="5.60524">
        <ele>845.62</ele>
        <time>2022-05-17T08:23:39Z</time>
      </trkpt>
      <trkpt lat="44.41467" lon="5.60503">
        <ele>845.62</ele>
        <time>2022-05-17T08:23:58Z</time>
      </trkpt>
      <trkpt lat="44.41461" lon="5.60479">
        <ele>845.62</ele>
        <time>2022-05-17T08:24:17Z</time>
      </trkpt>
      <trkpt lat="44.41455" lon="5.60456">
        <ele>845.62</ele>
        <time>2022-05-17T08:24:36Z</time>
      </trkpt>
      <trkpt lat="44.4145" lon="5.60433">
        <ele>845.62</ele>
        <time>2022-05-17T08:24:55Z</time>
      </trkpt>
      <trkpt lat="44.41444" lon="5.60412">
        <ele>846.1</ele>
        <time>2022-05-17T08:25:13Z</time>
      </trkpt>
      <trkpt lat="44.4144" lon="5.60396">
        <ele>846.1</ele>
        <time>2022-05-17T08:25:28Z</time>
      </trkpt>
      <trkpt lat="44.41436" lon="5.60376">
        <ele>846.58</ele>
        <time>2022-05-17T08:25:46Z</time>
      </trkpt>
      <trkpt lat="44.41432" lon="5.60358">
        <ele>847.06</ele>
        <time>2022-05-17T08:26:02Z</time>
      </trkpt>
      <trkpt lat="44.4143" lon="5.60343">
        <ele>847.54</ele>
        <time>2022-05-17T08:26:16Z</time>
      </trkpt>
      <trkpt lat="44.41426" lon="5.60326">
        <ele>848.5</ele>
        <time>2022-05-17T08:26:32Z</time>
      </trkpt>
      <trkpt lat="44.41426" lon="5.60325">
        <ele>848.5</ele>
        <time>2022-05-17T08:26:33Z</time>
      </trkpt>
      <trkpt lat="44.41417" lon="5.60312">
        <ele>849.94</ele>
        <time>2022-05-17T08:26:49Z</time>
      </trkpt>
      <trkpt lat="44.41408" lon="5.60303">
        <ele>850.9</ele>
        <time>2022-05-17T08:27:03Z</time>
      </trkpt>
      <trkpt lat="44.414" lon="5.60289">
        <ele>851.87</ele>
        <time>2022-05-17T08:27:17Z</time>
      </trkpt>
      <trkpt lat="44.41397" lon="5.60267">
        <ele>851.87</ele>
        <time>2022-05-17T08:27:33Z</time>
      </trkpt>
      <trkpt lat="44.41396" lon="5.60252">
        <ele>852.35</ele>
        <time>2022-05-17T08:27:47Z</time>
      </trkpt>
      <trkpt lat="44.41397" lon="5.60231">
        <ele>851.87</ele>
        <time>2022-05-17T08:28:04Z</time>
      </trkpt>
      <trkpt lat="44.41402" lon="5.60208">
        <ele>851.38</ele>
        <time>2022-05-17T08:28:22Z</time>
      </trkpt>
      <trkpt lat="44.41404" lon="5.60192">
        <ele>851.38</ele>
        <time>2022-05-17T08:28:36Z</time>
      </trkpt>
      <trkpt lat="44.41408" lon="5.60172">
        <ele>850.9</ele>
        <time>2022-05-17T08:28:53Z</time>
      </trkpt>
      <trkpt lat="44.41412" lon="5.60149">
        <ele>848.98</ele>
        <time>2022-05-17T08:29:13Z</time>
      </trkpt>
      <trkpt lat="44.41413" lon="5.60127">
        <ele>848.02</ele>
        <time>2022-05-17T08:29:31Z</time>
      </trkpt>
      <trkpt lat="44.41412" lon="5.60116">
        <ele>848.02</ele>
        <time>2022-05-17T08:29:40Z</time>
      </trkpt>
      <trkpt lat="44.41404" lon="5.60099">
        <ele>847.06</ele>
        <time>2022-05-17T08:29:58Z</time>
      </trkpt>
      <trkpt lat="44.41396" lon="5.60078">
        <ele>846.58</ele>
        <time>2022-05-17T08:30:16Z</time>
      </trkpt>
      <trkpt lat="44.41388" lon="5.60058">
        <ele>845.62</ele>
        <time>2022-05-17T08:30:34Z</time>
      </trkpt>
      <trkpt lat="44.41383" lon="5.60048">
        <ele>846.1</ele>
        <time>2022-05-17T08:30:44Z</time>
      </trkpt>
      <trkpt lat="44.41368" lon="5.60029">
        <ele>845.62</ele>
        <time>2022-05-17T08:31:02Z</time>
      </trkpt>
      <trkpt lat="44.41356" lon="5.60016">
        <ele>845.62</ele>
        <time>2022-05-17T08:31:22Z</time>
      </trkpt>
      <trkpt lat="44.41355" lon="5.59995">
        <ele>845.62</ele>
        <time>2022-05-17T08:31:39Z</time>
      </trkpt>
      <trkpt lat="44.41356" lon="5.59987">
        <ele>845.62</ele>
        <time>2022-05-17T08:31:46Z</time>
      </trkpt>
      <trkpt lat="44.41362" lon="5.59967">
        <ele>846.1</ele>
        <time>2022-05-17T08:32:03Z</time>
      </trkpt>
      <trkpt lat="44.41366" lon="5.59949">
        <ele>846.1</ele>
        <time>2022-05-17T08:32:19Z</time>
      </trkpt>
      <trkpt lat="44.41373" lon="5.59933">
        <ele>846.1</ele>
        <time>2022-05-17T08:32:33Z</time>
      </trkpt>
      <trkpt lat="44.4138" lon="5.59916">
        <ele>846.58</ele>
        <time>2022-05-17T08:32:48Z</time>
      </trkpt>
      <trkpt lat="44.41386" lon="5.59901">
        <ele>846.58</ele>
        <time>2022-05-17T08:33:03Z</time>
      </trkpt>
      <trkpt lat="44.41393" lon="5.59884">
        <ele>847.06</ele>
        <time>2022-05-17T08:33:19Z</time>
      </trkpt>
      <trkpt lat="44.414" lon="5.59865">
        <ele>847.06</ele>
        <time>2022-05-17T08:33:37Z</time>
      </trkpt>
      <trkpt lat="44.41404" lon="5.59846">
        <ele>847.54</ele>
        <time>2022-05-17T08:33:54Z</time>
      </trkpt>
      <trkpt lat="44.41403" lon="5.59827">
        <ele>847.54</ele>
        <time>2022-05-17T08:34:12Z</time>
      </trkpt>
      <trkpt lat="44.41399" lon="5.59813">
        <ele>848.02</ele>
        <time>2022-05-17T08:34:26Z</time>
      </trkpt>
      <trkpt lat="44.41396" lon="5.598">
        <ele>848.02</ele>
        <time>2022-05-17T08:34:42Z</time>
      </trkpt>
      <trkpt lat="44.41391" lon="5.5979">
        <ele>848.5</ele>
        <time>2022-05-17T08:34:57Z</time>
      </trkpt>
      <trkpt lat="44.4139" lon="5.59791">
        <ele>848.5</ele>
        <time>2022-05-17T08:35:15Z</time>
      </trkpt>
      <trkpt lat="44.41388" lon="5.59788">
        <ele>848.02</ele>
        <time>2022-05-17T08:35:29Z</time>
      </trkpt>
      <trkpt lat="44.41388" lon="5.59791">
        <ele>848.02</ele>
        <time>2022-05-17T08:35:56Z</time>
      </trkpt>
      <trkpt lat="44.41385" lon="5.59788">
        <ele>848.02</ele>
        <time>2022-05-17T08:36:14Z</time>
      </trkpt>
      <trkpt lat="44.41381" lon="5.59783">
        <ele>848.02</ele>
        <time>2022-05-17T08:36:29Z</time>
      </trkpt>
      <trkpt lat="44.41378" lon="5.59782">
        <ele>848.02</ele>
        <time>2022-05-17T08:36:43Z</time>
      </trkpt>
      <trkpt lat="44.41377" lon="5.59777">
        <ele>848.02</ele>
        <time>2022-05-17T08:36:54Z</time>
      </trkpt>
      <trkpt lat="44.41378" lon="5.59777">
        <ele>848.02</ele>
        <time>2022-05-17T08:37:11Z</time>
      </trkpt>
      <trkpt lat="44.41377" lon="5.59775">
        <ele>848.02</ele>
        <time>2022-05-17T08:37:33Z</time>
      </trkpt>
      <trkpt lat="44.41378" lon="5.59775">
        <ele>848.02</ele>
        <time>2022-05-17T08:37:56Z</time>
      </trkpt>
      <trkpt lat="44.41378" lon="5.59778">
        <ele>848.02</ele>
        <time>2022-05-17T08:38:14Z</time>
      </trkpt>
      <trkpt lat="44.41377" lon="5.59777">
        <ele>848.5</ele>
        <time>2022-05-17T08:38:41Z</time>
      </trkpt>
      <trkpt lat="44.41374" lon="5.59777">
        <ele>848.5</ele>
        <time>2022-05-17T08:38:53Z</time>
      </trkpt>
      <trkpt lat="44.4137" lon="5.59773">
        <ele>848.5</ele>
        <time>2022-05-17T08:39:07Z</time>
      </trkpt>
      <trkpt lat="44.41364" lon="5.59773">
        <ele>849.46</ele>
        <time>2022-05-17T08:39:21Z</time>
      </trkpt>
      <trkpt lat="44.41361" lon="5.5977">
        <ele>849.94</ele>
        <time>2022-05-17T08:39:35Z</time>
      </trkpt>
      <trkpt lat="44.41357" lon="5.59766">
        <ele>849.94</ele>
        <time>2022-05-17T08:39:55Z</time>
      </trkpt>
      <trkpt lat="44.41354" lon="5.59764">
        <ele>849.94</ele>
        <time>2022-05-17T08:40:16Z</time>
      </trkpt>
      <trkpt lat="44.41352" lon="5.59761">
        <ele>850.42</ele>
        <time>2022-05-17T08:40:29Z</time>
      </trkpt>
      <trkpt lat="44.41346" lon="5.59755">
        <ele>851.38</ele>
        <time>2022-05-17T08:40:44Z</time>
      </trkpt>
      <trkpt lat="44.4134" lon="5.59748">
        <ele>852.35</ele>
        <time>2022-05-17T08:40:57Z</time>
      </trkpt>
      <trkpt lat="44.41335" lon="5.59741">
        <ele>853.31</ele>
        <time>2022-05-17T08:41:12Z</time>
      </trkpt>
      <trkpt lat="44.4133" lon="5.59729">
        <ele>855.23</ele>
        <time>2022-05-17T08:41:28Z</time>
      </trkpt>
      <trkpt lat="44.41326" lon="5.59722">
        <ele>856.19</ele>
        <time>2022-05-17T08:41:42Z</time>
      </trkpt>
      <trkpt lat="44.41321" lon="5.59713">
        <ele>857.63</ele>
        <time>2022-05-17T08:41:57Z</time>
      </trkpt>
      <trkpt lat="44.41316" lon="5.59705">
        <ele>859.56</ele>
        <time>2022-05-17T08:42:13Z</time>
      </trkpt>
      <trkpt lat="44.41313" lon="5.59701">
        <ele>861</ele>
        <time>2022-05-17T08:42:25Z</time>
      </trkpt>
      <trkpt lat="44.4131" lon="5.59696">
        <ele>861.96</ele>
        <time>2022-05-17T08:42:36Z</time>
      </trkpt>
      <trkpt lat="44.41305" lon="5.59691">
        <ele>863.4</ele>
        <time>2022-05-17T08:42:49Z</time>
      </trkpt>
      <trkpt lat="44.413" lon="5.59685">
        <ele>864.84</ele>
        <time>2022-05-17T08:43:05Z</time>
      </trkpt>
      <trkpt lat="44.41294" lon="5.59678">
        <ele>865.8</ele>
        <time>2022-05-17T08:43:18Z</time>
      </trkpt>
      <trkpt lat="44.41289" lon="5.5967">
        <ele>866.29</ele>
        <time>2022-05-17T08:43:30Z</time>
      </trkpt>
      <trkpt lat="44.41285" lon="5.59661">
        <ele>867.73</ele>
        <time>2022-05-17T08:43:44Z</time>
      </trkpt>
      <trkpt lat="44.41281" lon="5.59652">
        <ele>868.21</ele>
        <time>2022-05-17T08:43:57Z</time>
      </trkpt>
      <trkpt lat="44.41276" lon="5.59641">
        <ele>868.69</ele>
        <time>2022-05-17T08:44:15Z</time>
      </trkpt>
      <trkpt lat="44.41272" lon="5.59629">
        <ele>869.65</ele>
        <time>2022-05-17T08:44:29Z</time>
      </trkpt>
      <trkpt lat="44.41268" lon="5.59621">
        <ele>870.61</ele>
        <time>2022-05-17T08:44:41Z</time>
      </trkpt>
      <trkpt lat="44.41264" lon="5.59612">
        <ele>872.05</ele>
        <time>2022-05-17T08:44:54Z</time>
      </trkpt>
      <trkpt lat="44.41262" lon="5.59605">
        <ele>873.01</ele>
        <time>2022-05-17T08:45:05Z</time>
      </trkpt>
      <trkpt lat="44.41259" lon="5.596">
        <ele>873.98</ele>
        <time>2022-05-17T08:45:18Z</time>
      </trkpt>
      <trkpt lat="44.41254" lon="5.59592">
        <ele>875.42</ele>
        <time>2022-05-17T08:45:32Z</time>
      </trkpt>
      <trkpt lat="44.41246" lon="5.59587">
        <ele>876.38</ele>
        <time>2022-05-17T08:45:46Z</time>
      </trkpt>
      <trkpt lat="44.41238" lon="5.59588">
        <ele>877.34</ele>
        <time>2022-05-17T08:45:59Z</time>
      </trkpt>
      <trkpt lat="44.41233" lon="5.59576">
        <ele>878.78</ele>
        <time>2022-05-17T08:46:15Z</time>
      </trkpt>
      <trkpt lat="44.41234" lon="5.59562">
        <ele>879.26</ele>
        <time>2022-05-17T08:46:30Z</time>
      </trkpt>
      <trkpt lat="44.41233" lon="5.59551">
        <ele>880.22</ele>
        <time>2022-05-17T08:46:45Z</time>
      </trkpt>
      <trkpt lat="44.41232" lon="5.59539">
        <ele>879.74</ele>
        <time>2022-05-17T08:46:59Z</time>
      </trkpt>
      <trkpt lat="44.41232" lon="5.59531">
        <ele>880.71</ele>
        <time>2022-05-17T08:47:16Z</time>
      </trkpt>
      <trkpt lat="44.41231" lon="5.59528">
        <ele>880.71</ele>
        <time>2022-05-17T08:47:29Z</time>
      </trkpt>
      <trkpt lat="44.4123" lon="5.59527">
        <ele>881.19</ele>
        <time>2022-05-17T08:47:44Z</time>
      </trkpt>
      <trkpt lat="44.41231" lon="5.59524">
        <ele>880.71</ele>
        <time>2022-05-17T08:48:02Z</time>
      </trkpt>
      <trkpt lat="44.41231" lon="5.59527">
        <ele>880.22</ele>
        <time>2022-05-17T08:48:15Z</time>
      </trkpt>
      <trkpt lat="44.41231" lon="5.59527">
        <ele>880.22</ele>
        <time>2022-05-17T08:48:22Z</time>
      </trkpt>
      <trkpt lat="44.41228" lon="5.59524">
        <ele>880.22</ele>
        <time>2022-05-17T08:48:36Z</time>
      </trkpt>
      <trkpt lat="44.41232" lon="5.59524">
        <ele>880.22</ele>
        <time>2022-05-17T08:49:04Z</time>
      </trkpt>
      <trkpt lat="44.41234" lon="5.59524">
        <ele>880.22</ele>
        <time>2022-05-17T08:49:28Z</time>
      </trkpt>
      <trkpt lat="44.41234" lon="5.59525">
        <ele>880.71</ele>
        <time>2022-05-17T08:50:03Z</time>
      </trkpt>
      <trkpt lat="44.41234" lon="5.59525">
        <ele>880.71</ele>
        <time>2022-05-17T08:50:21Z</time>
      </trkpt>
      <trkpt lat="44.41234" lon="5.59523">
        <ele>880.71</ele>
        <time>2022-05-17T08:50:46Z</time>
      </trkpt>
      <trkpt lat="44.41232" lon="5.59524">
        <ele>880.71</ele>
        <time>2022-05-17T08:51:18Z</time>
      </trkpt>
      <trkpt lat="44.41233" lon="5.59523">
        <ele>880.71</ele>
        <time>2022-05-17T08:51:41Z</time>
      </trkpt>
      <trkpt lat="44.41234" lon="5.59523">
        <ele>880.71</ele>
        <time>2022-05-17T08:52:09Z</time>
      </trkpt>
      <trkpt lat="44.41234" lon="5.59524">
        <ele>880.71</ele>
        <time>2022-05-17T08:52:48Z</time>
      </trkpt>
      <trkpt lat="44.41231" lon="5.59524">
        <ele>881.19</ele>
        <time>2022-05-17T08:53:06Z</time>
      </trkpt>
      <trkpt lat="44.41232" lon="5.59523">
        <ele>881.19</ele>
        <time>2022-05-17T08:53:25Z</time>
      </trkpt>
      <trkpt lat="44.41231" lon="5.59523">
        <ele>881.19</ele>
        <time>2022-05-17T08:53:54Z</time>
      </trkpt>
      <trkpt lat="44.41232" lon="5.59523">
        <ele>881.19</ele>
        <time>2022-05-17T08:54:15Z</time>
      </trkpt>
      <trkpt lat="44.41232" lon="5.59524">
        <ele>881.19</ele>
        <time>2022-05-17T08:54:34Z</time>
      </trkpt>
      <trkpt lat="44.41231" lon="5.59527">
        <ele>882.63</ele>
        <time>2022-05-17T08:54:53Z</time>
      </trkpt>
      <trkpt lat="44.4123" lon="5.59527">
        <ele>881.19</ele>
        <time>2022-05-17T08:55:24Z</time>
      </trkpt>
      <trkpt lat="44.41228" lon="5.59527">
        <ele>881.19</ele>
        <time>2022-05-17T08:55:59Z</time>
      </trkpt>
      <trkpt lat="44.41232" lon="5.59526">
        <ele>881.19</ele>
        <time>2022-05-17T08:56:36Z</time>
      </trkpt>
      <trkpt lat="44.41229" lon="5.59526">
        <ele>881.19</ele>
        <time>2022-05-17T08:57:08Z</time>
      </trkpt>
      <trkpt lat="44.41232" lon="5.59525">
        <ele>881.19</ele>
        <time>2022-05-17T08:57:49Z</time>
      </trkpt>
      <trkpt lat="44.41233" lon="5.59524">
        <ele>881.19</ele>
        <time>2022-05-17T08:58:13Z</time>
      </trkpt>
      <trkpt lat="44.41231" lon="5.59523">
        <ele>882.63</ele>
        <time>2022-05-17T08:58:25Z</time>
      </trkpt>
      <trkpt lat="44.4123" lon="5.59521">
        <ele>882.15</ele>
        <time>2022-05-17T08:58:39Z</time>
      </trkpt>
      <trkpt lat="44.41229" lon="5.59513">
        <ele>883.11</ele>
        <time>2022-05-17T08:58:51Z</time>
      </trkpt>
      <trkpt lat="44.41228" lon="5.59499">
        <ele>883.59</ele>
        <time>2022-05-17T08:59:05Z</time>
      </trkpt>
      <trkpt lat="44.41228" lon="5.59489">
        <ele>884.55</ele>
        <time>2022-05-17T08:59:18Z</time>
      </trkpt>
      <trkpt lat="44.41226" lon="5.59478">
        <ele>885.03</ele>
        <time>2022-05-17T08:59:32Z</time>
      </trkpt>
      <trkpt lat="44.41224" lon="5.59465">
        <ele>885.99</ele>
        <time>2022-05-17T08:59:46Z</time>
      </trkpt>
      <trkpt lat="44.4122" lon="5.59452">
        <ele>886.47</ele>
        <time>2022-05-17T09:00:02Z</time>
      </trkpt>
      <trkpt lat="44.41216" lon="5.59439">
        <ele>887.91</ele>
        <time>2022-05-17T09:00:17Z</time>
      </trkpt>
      <trkpt lat="44.41212" lon="5.5943">
        <ele>888.4</ele>
        <time>2022-05-17T09:00:28Z</time>
      </trkpt>
      <trkpt lat="44.41208" lon="5.59417">
        <ele>888.4</ele>
        <time>2022-05-17T09:00:42Z</time>
      </trkpt>
      <trkpt lat="44.41205" lon="5.59406">
        <ele>889.84</ele>
        <time>2022-05-17T09:00:55Z</time>
      </trkpt>
      <trkpt lat="44.41203" lon="5.59403">
        <ele>890.32</ele>
        <time>2022-05-17T09:01:06Z</time>
      </trkpt>
      <trkpt lat="44.41201" lon="5.59396">
        <ele>890.8</ele>
        <time>2022-05-17T09:01:21Z</time>
      </trkpt>
      <trkpt lat="44.41197" lon="5.59388">
        <ele>891.76</ele>
        <time>2022-05-17T09:01:36Z</time>
      </trkpt>
      <trkpt lat="44.41193" lon="5.5938">
        <ele>892.72</ele>
        <time>2022-05-17T09:01:48Z</time>
      </trkpt>
      <trkpt lat="44.41187" lon="5.59372">
        <ele>894.16</ele>
        <time>2022-05-17T09:02:04Z</time>
      </trkpt>
      <trkpt lat="44.41187" lon="5.59372">
        <ele>894.16</ele>
        <time>2022-05-17T09:02:25Z</time>
      </trkpt>
      <trkpt lat="44.41187" lon="5.59373">
        <ele>894.16</ele>
        <time>2022-05-17T09:02:51Z</time>
      </trkpt>
      <trkpt lat="44.41187" lon="5.59371">
        <ele>894.16</ele>
        <time>2022-05-17T09:03:11Z</time>
      </trkpt>
      <trkpt lat="44.41186" lon="5.59364">
        <ele>894.16</ele>
        <time>2022-05-17T09:03:24Z</time>
      </trkpt>
      <trkpt lat="44.4118" lon="5.5935">
        <ele>895.12</ele>
        <time>2022-05-17T09:03:38Z</time>
      </trkpt>
      <trkpt lat="44.41178" lon="5.59343">
        <ele>896.09</ele>
        <time>2022-05-17T09:03:51Z</time>
      </trkpt>
      <trkpt lat="44.4117" lon="5.59326">
        <ele>897.53</ele>
        <time>2022-05-17T09:04:08Z</time>
      </trkpt>
      <trkpt lat="44.41166" lon="5.5931">
        <ele>898.97</ele>
        <time>2022-05-17T09:04:24Z</time>
      </trkpt>
      <trkpt lat="44.4116" lon="5.59296">
        <ele>899.93</ele>
        <time>2022-05-17T09:04:39Z</time>
      </trkpt>
      <trkpt lat="44.41153" lon="5.59287">
        <ele>900.89</ele>
        <time>2022-05-17T09:04:52Z</time>
      </trkpt>
      <trkpt lat="44.41146" lon="5.59279">
        <ele>902.33</ele>
        <time>2022-05-17T09:05:04Z</time>
      </trkpt>
      <trkpt lat="44.4114" lon="5.59269">
        <ele>903.3</ele>
        <time>2022-05-17T09:05:17Z</time>
      </trkpt>
      <trkpt lat="44.41134" lon="5.59259">
        <ele>904.74</ele>
        <time>2022-05-17T09:05:31Z</time>
      </trkpt>
      <trkpt lat="44.41129" lon="5.59248">
        <ele>907.14</ele>
        <time>2022-05-17T09:05:46Z</time>
      </trkpt>
      <trkpt lat="44.41125" lon="5.59238">
        <ele>907.14</ele>
        <time>2022-05-17T09:05:58Z</time>
      </trkpt>
      <trkpt lat="44.4112" lon="5.59224">
        <ele>908.58</ele>
        <time>2022-05-17T09:06:14Z</time>
      </trkpt>
      <trkpt lat="44.41115" lon="5.5921">
        <ele>909.54</ele>
        <time>2022-05-17T09:06:29Z</time>
      </trkpt>
      <trkpt lat="44.41108" lon="5.59198">
        <ele>910.03</ele>
        <time>2022-05-17T09:06:42Z</time>
      </trkpt>
      <trkpt lat="44.41101" lon="5.59187">
        <ele>910.99</ele>
        <time>2022-05-17T09:06:56Z</time>
      </trkpt>
      <trkpt lat="44.41094" lon="5.59179">
        <ele>912.43</ele>
        <time>2022-05-17T09:07:09Z</time>
      </trkpt>
      <trkpt lat="44.41088" lon="5.59175">
        <ele>913.39</ele>
        <time>2022-05-17T09:07:22Z</time>
      </trkpt>
      <trkpt lat="44.4108" lon="5.59169">
        <ele>914.35</ele>
        <time>2022-05-17T09:07:34Z</time>
      </trkpt>
      <trkpt lat="44.41072" lon="5.59166">
        <ele>915.79</ele>
        <time>2022-05-17T09:07:46Z</time>
      </trkpt>
      <trkpt lat="44.41063" lon="5.59161">
        <ele>916.75</ele>
        <time>2022-05-17T09:08:01Z</time>
      </trkpt>
      <trkpt lat="44.41055" lon="5.59157">
        <ele>917.72</ele>
        <time>2022-05-17T09:08:15Z</time>
      </trkpt>
      <trkpt lat="44.41045" lon="5.59152">
        <ele>918.68</ele>
        <time>2022-05-17T09:08:29Z</time>
      </trkpt>
      <trkpt lat="44.41034" lon="5.59147">
        <ele>919.16</ele>
        <time>2022-05-17T09:08:44Z</time>
      </trkpt>
      <trkpt lat="44.41024" lon="5.59138">
        <ele>919.16</ele>
        <time>2022-05-17T09:08:57Z</time>
      </trkpt>
      <trkpt lat="44.41013" lon="5.59132">
        <ele>919.16</ele>
        <time>2022-05-17T09:09:12Z</time>
      </trkpt>
      <trkpt lat="44.41004" lon="5.59126">
        <ele>919.64</ele>
        <time>2022-05-17T09:09:26Z</time>
      </trkpt>
      <trkpt lat="44.40995" lon="5.59118">
        <ele>920.12</ele>
        <time>2022-05-17T09:09:40Z</time>
      </trkpt>
      <trkpt lat="44.40986" lon="5.59111">
        <ele>920.12</ele>
        <time>2022-05-17T09:09:54Z</time>
      </trkpt>
      <trkpt lat="44.40977" lon="5.59106">
        <ele>921.08</ele>
        <time>2022-05-17T09:10:09Z</time>
      </trkpt>
      <trkpt lat="44.40965" lon="5.59104">
        <ele>920.12</ele>
        <time>2022-05-17T09:10:24Z</time>
      </trkpt>
      <trkpt lat="44.40955" lon="5.59106">
        <ele>920.12</ele>
        <time>2022-05-17T09:10:38Z</time>
      </trkpt>
      <trkpt lat="44.40942" lon="5.59107">
        <ele>919.64</ele>
        <time>2022-05-17T09:10:55Z</time>
      </trkpt>
      <trkpt lat="44.4093" lon="5.59103">
        <ele>918.68</ele>
        <time>2022-05-17T09:11:10Z</time>
      </trkpt>
      <trkpt lat="44.4092" lon="5.59101">
        <ele>918.2</ele>
        <time>2022-05-17T09:11:24Z</time>
      </trkpt>
      <trkpt lat="44.40914" lon="5.59101">
        <ele>918.2</ele>
        <time>2022-05-17T09:11:31Z</time>
      </trkpt>
      <trkpt lat="44.40901" lon="5.59104">
        <ele>918.68</ele>
        <time>2022-05-17T09:11:47Z</time>
      </trkpt>
      <trkpt lat="44.40891" lon="5.59103">
        <ele>919.16</ele>
        <time>2022-05-17T09:12:01Z</time>
      </trkpt>
      <trkpt lat="44.40884" lon="5.59098">
        <ele>919.16</ele>
        <time>2022-05-17T09:12:11Z</time>
      </trkpt>
      <trkpt lat="44.40874" lon="5.59088">
        <ele>919.64</ele>
        <time>2022-05-17T09:12:26Z</time>
      </trkpt>
      <trkpt lat="44.40865" lon="5.59078">
        <ele>920.12</ele>
        <time>2022-05-17T09:12:41Z</time>
      </trkpt>
      <trkpt lat="44.40857" lon="5.59068">
        <ele>920.6</ele>
        <time>2022-05-17T09:12:55Z</time>
      </trkpt>
      <trkpt lat="44.40849" lon="5.59055">
        <ele>921.56</ele>
        <time>2022-05-17T09:13:10Z</time>
      </trkpt>
      <trkpt lat="44.40842" lon="5.59043">
        <ele>922.04</ele>
        <time>2022-05-17T09:13:24Z</time>
      </trkpt>
      <trkpt lat="44.40835" lon="5.59029">
        <ele>921.56</ele>
        <time>2022-05-17T09:13:40Z</time>
      </trkpt>
      <trkpt lat="44.40822" lon="5.59016">
        <ele>921.08</ele>
        <time>2022-05-17T09:13:59Z</time>
      </trkpt>
      <trkpt lat="44.40812" lon="5.59008">
        <ele>920.6</ele>
        <time>2022-05-17T09:14:15Z</time>
      </trkpt>
      <trkpt lat="44.40804" lon="5.59001">
        <ele>920.6</ele>
        <time>2022-05-17T09:14:28Z</time>
      </trkpt>
      <trkpt lat="44.40795" lon="5.58998">
        <ele>921.08</ele>
        <time>2022-05-17T09:14:40Z</time>
      </trkpt>
      <trkpt lat="44.40786" lon="5.58999">
        <ele>922.52</ele>
        <time>2022-05-17T09:14:55Z</time>
      </trkpt>
      <trkpt lat="44.4078" lon="5.59">
        <ele>923.96</ele>
        <time>2022-05-17T09:15:10Z</time>
      </trkpt>
      <trkpt lat="44.40773" lon="5.59002">
        <ele>925.41</ele>
        <time>2022-05-17T09:15:22Z</time>
      </trkpt>
      <trkpt lat="44.40766" lon="5.59004">
        <ele>927.33</ele>
        <time>2022-05-17T09:15:40Z</time>
      </trkpt>
      <trkpt lat="44.40758" lon="5.59006">
        <ele>927.81</ele>
        <time>2022-05-17T09:15:54Z</time>
      </trkpt>
      <trkpt lat="44.40752" lon="5.59013">
        <ele>929.25</ele>
        <time>2022-05-17T09:16:11Z</time>
      </trkpt>
      <trkpt lat="44.40753" lon="5.59014">
        <ele>929.73</ele>
        <time>2022-05-17T09:16:22Z</time>
      </trkpt>
      <trkpt lat="44.40752" lon="5.59017">
        <ele>930.69</ele>
        <time>2022-05-17T09:16:42Z</time>
      </trkpt>
      <trkpt lat="44.4075" lon="5.59023">
        <ele>930.69</ele>
        <time>2022-05-17T09:16:55Z</time>
      </trkpt>
      <trkpt lat="44.40749" lon="5.59025">
        <ele>931.17</ele>
        <time>2022-05-17T09:17:17Z</time>
      </trkpt>
      <trkpt lat="44.40748" lon="5.59026">
        <ele>931.17</ele>
        <time>2022-05-17T09:17:43Z</time>
      </trkpt>
      <trkpt lat="44.40748" lon="5.59024">
        <ele>930.21</ele>
        <time>2022-05-17T09:18:01Z</time>
      </trkpt>
      <trkpt lat="44.40747" lon="5.59022">
        <ele>930.21</ele>
        <time>2022-05-17T09:18:33Z</time>
      </trkpt>
      <trkpt lat="44.40748" lon="5.59022">
        <ele>931.17</ele>
        <time>2022-05-17T09:19:01Z</time>
      </trkpt>
      <trkpt lat="44.4075" lon="5.59025">
        <ele>931.17</ele>
        <time>2022-05-17T09:19:16Z</time>
      </trkpt>
      <trkpt lat="44.40745" lon="5.5903">
        <ele>931.65</ele>
        <time>2022-05-17T09:19:35Z</time>
      </trkpt>
      <trkpt lat="44.4074" lon="5.59034">
        <ele>932.14</ele>
        <time>2022-05-17T09:19:49Z</time>
      </trkpt>
      <trkpt lat="44.40732" lon="5.59041">
        <ele>933.58</ele>
        <time>2022-05-17T09:20:05Z</time>
      </trkpt>
      <trkpt lat="44.40726" lon="5.59049">
        <ele>935.5</ele>
        <time>2022-05-17T09:20:20Z</time>
      </trkpt>
      <trkpt lat="44.40723" lon="5.59059">
        <ele>935.98</ele>
        <time>2022-05-17T09:20:32Z</time>
      </trkpt>
      <trkpt lat="44.40717" lon="5.59072">
        <ele>937.42</ele>
        <time>2022-05-17T09:20:48Z</time>
      </trkpt>
      <trkpt lat="44.40713" lon="5.59083">
        <ele>938.38</ele>
        <time>2022-05-17T09:21:02Z</time>
      </trkpt>
      <trkpt lat="44.40708" lon="5.59097">
        <ele>939.35</ele>
        <time>2022-05-17T09:21:17Z</time>
      </trkpt>
      <trkpt lat="44.40704" lon="5.59108">
        <ele>940.79</ele>
        <time>2022-05-17T09:21:31Z</time>
      </trkpt>
      <trkpt lat="44.40702" lon="5.59119">
        <ele>941.27</ele>
        <time>2022-05-17T09:21:43Z</time>
      </trkpt>
      <trkpt lat="44.40696" lon="5.59132">
        <ele>942.23</ele>
        <time>2022-05-17T09:21:57Z</time>
      </trkpt>
      <trkpt lat="44.40693" lon="5.59141">
        <ele>942.71</ele>
        <time>2022-05-17T09:22:06Z</time>
      </trkpt>
      <trkpt lat="44.40685" lon="5.59152">
        <ele>943.67</ele>
        <time>2022-05-17T09:22:20Z</time>
      </trkpt>
      <trkpt lat="44.40677" lon="5.59161">
        <ele>944.15</ele>
        <time>2022-05-17T09:22:33Z</time>
      </trkpt>
      <trkpt lat="44.40668" lon="5.59174">
        <ele>944.63</ele>
        <time>2022-05-17T09:22:49Z</time>
      </trkpt>
      <trkpt lat="44.40656" lon="5.59186">
        <ele>944.63</ele>
        <time>2022-05-17T09:23:05Z</time>
      </trkpt>
      <trkpt lat="44.4065" lon="5.59192">
        <ele>945.11</ele>
        <time>2022-05-17T09:23:18Z</time>
      </trkpt>
      <trkpt lat="44.4065" lon="5.59193">
        <ele>944.63</ele>
        <time>2022-05-17T09:23:36Z</time>
      </trkpt>
      <trkpt lat="44.40647" lon="5.59191">
        <ele>944.63</ele>
        <time>2022-05-17T09:24:01Z</time>
      </trkpt>
      <trkpt lat="44.4065" lon="5.59182">
        <ele>944.63</ele>
        <time>2022-05-17T09:24:18Z</time>
      </trkpt>
      <trkpt lat="44.40645" lon="5.59183">
        <ele>946.07</ele>
        <time>2022-05-17T09:24:34Z</time>
      </trkpt>
      <trkpt lat="44.40642" lon="5.59175">
        <ele>947.04</ele>
        <time>2022-05-17T09:24:53Z</time>
      </trkpt>
      <trkpt lat="44.40641" lon="5.59175">
        <ele>948</ele>
        <time>2022-05-17T09:25:11Z</time>
      </trkpt>
      <trkpt lat="44.40639" lon="5.59178">
        <ele>948.48</ele>
        <time>2022-05-17T09:25:35Z</time>
      </trkpt>
      <trkpt lat="44.40637" lon="5.59174">
        <ele>949.44</ele>
        <time>2022-05-17T09:25:51Z</time>
      </trkpt>
      <trkpt lat="44.40631" lon="5.59175">
        <ele>949.92</ele>
        <time>2022-05-17T09:26:03Z</time>
      </trkpt>
      <trkpt lat="44.40631" lon="5.59178">
        <ele>949.92</ele>
        <time>2022-05-17T09:26:19Z</time>
      </trkpt>
      <trkpt lat="44.40631" lon="5.59172">
        <ele>950.4</ele>
        <time>2022-05-17T09:26:37Z</time>
      </trkpt>
      <trkpt lat="44.40632" lon="5.59175">
        <ele>949.92</ele>
        <time>2022-05-17T09:26:53Z</time>
      </trkpt>
      <trkpt lat="44.4063" lon="5.59176">
        <ele>949.44</ele>
        <time>2022-05-17T09:27:10Z</time>
      </trkpt>
      <trkpt lat="44.4063" lon="5.59179">
        <ele>949.44</ele>
        <time>2022-05-17T09:27:25Z</time>
      </trkpt>
      <trkpt lat="44.40629" lon="5.59178">
        <ele>949.44</ele>
        <time>2022-05-17T09:27:48Z</time>
      </trkpt>
      <trkpt lat="44.4063" lon="5.59177">
        <ele>949.44</ele>
        <time>2022-05-17T09:28:16Z</time>
      </trkpt>
      <trkpt lat="44.40626" lon="5.59176">
        <ele>949.44</ele>
        <time>2022-05-17T09:28:47Z</time>
      </trkpt>
      <trkpt lat="44.40629" lon="5.59177">
        <ele>949.44</ele>
        <time>2022-05-17T09:29:10Z</time>
      </trkpt>
      <trkpt lat="44.4063" lon="5.59177">
        <ele>949.44</ele>
        <time>2022-05-17T09:29:33Z</time>
      </trkpt>
      <trkpt lat="44.4063" lon="5.59177">
        <ele>949.92</ele>
        <time>2022-05-17T09:29:56Z</time>
      </trkpt>
      <trkpt lat="44.40632" lon="5.59176">
        <ele>949.92</ele>
        <time>2022-05-17T09:30:16Z</time>
      </trkpt>
      <trkpt lat="44.40633" lon="5.59175">
        <ele>949.92</ele>
        <time>2022-05-17T09:30:48Z</time>
      </trkpt>
      <trkpt lat="44.40631" lon="5.59177">
        <ele>949.92</ele>
        <time>2022-05-17T09:31:21Z</time>
      </trkpt>
      <trkpt lat="44.40627" lon="5.59178">
        <ele>950.88</ele>
        <time>2022-05-17T09:31:58Z</time>
      </trkpt>
      <trkpt lat="44.40629" lon="5.59177">
        <ele>949.92</ele>
        <time>2022-05-17T09:32:24Z</time>
      </trkpt>
      <trkpt lat="44.40633" lon="5.59177">
        <ele>949.92</ele>
        <time>2022-05-17T09:32:50Z</time>
      </trkpt>
      <trkpt lat="44.40632" lon="5.59179">
        <ele>949.92</ele>
        <time>2022-05-17T09:33:25Z</time>
      </trkpt>
      <trkpt lat="44.4063" lon="5.59181">
        <ele>950.4</ele>
        <time>2022-05-17T09:33:52Z</time>
      </trkpt>
      <trkpt lat="44.40629" lon="5.59181">
        <ele>950.4</ele>
        <time>2022-05-17T09:34:20Z</time>
      </trkpt>
      <trkpt lat="44.40627" lon="5.59179">
        <ele>950.4</ele>
        <time>2022-05-17T09:34:55Z</time>
      </trkpt>
      <trkpt lat="44.40625" lon="5.59178">
        <ele>950.4</ele>
        <time>2022-05-17T09:35:20Z</time>
      </trkpt>
      <trkpt lat="44.40628" lon="5.59178">
        <ele>950.4</ele>
        <time>2022-05-17T09:35:47Z</time>
      </trkpt>
      <trkpt lat="44.40629" lon="5.59175">
        <ele>950.4</ele>
        <time>2022-05-17T09:36:18Z</time>
      </trkpt>
      <trkpt lat="44.4063" lon="5.59175">
        <ele>949.92</ele>
        <time>2022-05-17T09:37:06Z</time>
      </trkpt>
      <trkpt lat="44.4063" lon="5.59177">
        <ele>949.92</ele>
        <time>2022-05-17T09:37:42Z</time>
      </trkpt>
      <trkpt lat="44.40629" lon="5.59179">
        <ele>950.4</ele>
        <time>2022-05-17T09:38:16Z</time>
      </trkpt>
      <trkpt lat="44.40629" lon="5.59177">
        <ele>950.4</ele>
        <time>2022-05-17T09:38:47Z</time>
      </trkpt>
      <trkpt lat="44.40631" lon="5.59176">
        <ele>950.4</ele>
        <time>2022-05-17T09:39:09Z</time>
      </trkpt>
      <trkpt lat="44.4063" lon="5.59177">
        <ele>950.88</ele>
        <time>2022-05-17T09:39:39Z</time>
      </trkpt>
      <trkpt lat="44.4063" lon="5.59177">
        <ele>950.88</ele>
        <time>2022-05-17T09:40:21Z</time>
      </trkpt>
      <trkpt lat="44.4063" lon="5.59175">
        <ele>950.88</ele>
        <time>2022-05-17T09:41:01Z</time>
      </trkpt>
      <trkpt lat="44.4063" lon="5.59173">
        <ele>950.88</ele>
        <time>2022-05-17T09:41:40Z</time>
      </trkpt>
      <trkpt lat="44.40629" lon="5.59175">
        <ele>951.36</ele>
        <time>2022-05-17T09:42:10Z</time>
      </trkpt>
      <trkpt lat="44.40628" lon="5.59178">
        <ele>950.88</ele>
        <time>2022-05-17T09:42:48Z</time>
      </trkpt>
      <trkpt lat="44.40629" lon="5.59175">
        <ele>951.36</ele>
        <time>2022-05-17T09:43:24Z</time>
      </trkpt>
      <trkpt lat="44.4063" lon="5.59174">
        <ele>951.84</ele>
        <time>2022-05-17T09:44:02Z</time>
      </trkpt>
      <trkpt lat="44.40631" lon="5.59172">
        <ele>951.36</ele>
        <time>2022-05-17T09:44:38Z</time>
      </trkpt>
      <trkpt lat="44.40632" lon="5.59174">
        <ele>951.36</ele>
        <time>2022-05-17T09:45:08Z</time>
      </trkpt>
      <trkpt lat="44.40632" lon="5.59176">
        <ele>950.88</ele>
        <time>2022-05-17T09:45:42Z</time>
      </trkpt>
      <trkpt lat="44.40632" lon="5.59175">
        <ele>951.36</ele>
        <time>2022-05-17T09:46:20Z</time>
      </trkpt>
      <trkpt lat="44.4063" lon="5.59175">
        <ele>951.36</ele>
        <time>2022-05-17T09:46:54Z</time>
      </trkpt>
      <trkpt lat="44.4063" lon="5.59174">
        <ele>951.36</ele>
        <time>2022-05-17T09:47:19Z</time>
      </trkpt>
      <trkpt lat="44.40628" lon="5.59174">
        <ele>951.36</ele>
        <time>2022-05-17T09:47:55Z</time>
      </trkpt>
      <trkpt lat="44.40628" lon="5.59175">
        <ele>951.36</ele>
        <time>2022-05-17T09:48:30Z</time>
      </trkpt>
      <trkpt lat="44.4063" lon="5.59173">
        <ele>951.36</ele>
        <time>2022-05-17T09:48:52Z</time>
      </trkpt>
      <trkpt lat="44.40629" lon="5.59174">
        <ele>951.36</ele>
        <time>2022-05-17T09:49:18Z</time>
      </trkpt>
      <trkpt lat="44.40629" lon="5.59176">
        <ele>951.36</ele>
        <time>2022-05-17T09:49:53Z</time>
      </trkpt>
      <trkpt lat="44.40631" lon="5.59176">
        <ele>951.84</ele>
        <time>2022-05-17T09:50:21Z</time>
      </trkpt>
      <trkpt lat="44.40631" lon="5.59173">
        <ele>951.84</ele>
        <time>2022-05-17T09:50:48Z</time>
      </trkpt>
      <trkpt lat="44.40629" lon="5.59173">
        <ele>951.84</ele>
        <time>2022-05-17T09:51:24Z</time>
      </trkpt>
      <trkpt lat="44.40628" lon="5.59173">
        <ele>951.84</ele>
        <time>2022-05-17T09:52:01Z</time>
      </trkpt>
      <trkpt lat="44.40629" lon="5.59174">
        <ele>951.84</ele>
        <time>2022-05-17T09:52:26Z</time>
      </trkpt>
      <trkpt lat="44.4063" lon="5.59176">
        <ele>951.84</ele>
        <time>2022-05-17T09:53:03Z</time>
      </trkpt>
      <trkpt lat="44.40629" lon="5.59174">
        <ele>951.84</ele>
        <time>2022-05-17T09:53:34Z</time>
      </trkpt>
      <trkpt lat="44.40626" lon="5.59176">
        <ele>951.84</ele>
        <time>2022-05-17T09:54:05Z</time>
      </trkpt>
      <trkpt lat="44.40626" lon="5.59175">
        <ele>951.84</ele>
        <time>2022-05-17T09:54:39Z</time>
      </trkpt>
      <trkpt lat="44.40627" lon="5.59174">
        <ele>951.84</ele>
        <time>2022-05-17T09:55:18Z</time>
      </trkpt>
      <trkpt lat="44.4063" lon="5.59173">
        <ele>952.32</ele>
        <time>2022-05-17T09:55:50Z</time>
      </trkpt>
      <trkpt lat="44.40629" lon="5.59175">
        <ele>952.32</ele>
        <time>2022-05-17T09:56:27Z</time>
      </trkpt>
      <trkpt lat="44.40628" lon="5.59176">
        <ele>952.8</ele>
        <time>2022-05-17T09:56:59Z</time>
      </trkpt>
      <trkpt lat="44.40627" lon="5.59178">
        <ele>952.8</ele>
        <time>2022-05-17T09:57:38Z</time>
      </trkpt>
      <trkpt lat="44.40629" lon="5.59174">
        <ele>952.8</ele>
        <time>2022-05-17T09:58:12Z</time>
      </trkpt>
      <trkpt lat="44.4063" lon="5.59173">
        <ele>952.8</ele>
        <time>2022-05-17T09:58:41Z</time>
      </trkpt>
      <trkpt lat="44.40628" lon="5.59173">
        <ele>952.8</ele>
        <time>2022-05-17T09:59:14Z</time>
      </trkpt>
      <trkpt lat="44.40628" lon="5.59171">
        <ele>952.8</ele>
        <time>2022-05-17T09:59:47Z</time>
      </trkpt>
      <trkpt lat="44.40627" lon="5.59168">
        <ele>953.77</ele>
        <time>2022-05-17T10:00:03Z</time>
      </trkpt>
      <trkpt lat="44.40627" lon="5.59169">
        <ele>952.8</ele>
        <time>2022-05-17T10:00:19Z</time>
      </trkpt>
      <trkpt lat="44.40629" lon="5.59173">
        <ele>952.8</ele>
        <time>2022-05-17T10:00:59Z</time>
      </trkpt>
      <trkpt lat="44.4063" lon="5.59174">
        <ele>952.8</ele>
        <time>2022-05-17T10:01:28Z</time>
      </trkpt>
      <trkpt lat="44.40628" lon="5.59172">
        <ele>953.28</ele>
        <time>2022-05-17T10:02:03Z</time>
      </trkpt>
      <trkpt lat="44.40626" lon="5.59171">
        <ele>953.28</ele>
        <time>2022-05-17T10:02:39Z</time>
      </trkpt>
      <trkpt lat="44.40625" lon="5.59172">
        <ele>953.28</ele>
        <time>2022-05-17T10:03:10Z</time>
      </trkpt>
      <trkpt lat="44.40625" lon="5.59175">
        <ele>953.28</ele>
        <time>2022-05-17T10:03:50Z</time>
      </trkpt>
      <trkpt lat="44.40626" lon="5.59176">
        <ele>953.77</ele>
        <time>2022-05-17T10:04:22Z</time>
      </trkpt>
      <trkpt lat="44.40624" lon="5.59172">
        <ele>953.28</ele>
        <time>2022-05-17T10:05:01Z</time>
      </trkpt>
      <trkpt lat="44.40623" lon="5.59177">
        <ele>953.28</ele>
        <time>2022-05-17T10:05:41Z</time>
      </trkpt>
      <trkpt lat="44.40624" lon="5.59174">
        <ele>953.77</ele>
        <time>2022-05-17T10:06:15Z</time>
      </trkpt>
      <trkpt lat="44.40624" lon="5.59174">
        <ele>953.77</ele>
        <time>2022-05-17T10:06:52Z</time>
      </trkpt>
      <trkpt lat="44.40624" lon="5.59173">
        <ele>953.77</ele>
        <time>2022-05-17T10:07:34Z</time>
      </trkpt>
      <trkpt lat="44.40622" lon="5.59174">
        <ele>953.77</ele>
        <time>2022-05-17T10:08:08Z</time>
      </trkpt>
      <trkpt lat="44.40623" lon="5.59174">
        <ele>953.77</ele>
        <time>2022-05-17T10:08:48Z</time>
      </trkpt>
      <trkpt lat="44.40626" lon="5.59168">
        <ele>953.77</ele>
        <time>2022-05-17T10:09:23Z</time>
      </trkpt>
      <trkpt lat="44.40627" lon="5.59171">
        <ele>953.77</ele>
        <time>2022-05-17T10:09:58Z</time>
      </trkpt>
      <trkpt lat="44.4063" lon="5.59169">
        <ele>953.77</ele>
        <time>2022-05-17T10:10:35Z</time>
      </trkpt>
      <trkpt lat="44.40631" lon="5.59171">
        <ele>954.25</ele>
        <time>2022-05-17T10:10:59Z</time>
      </trkpt>
      <trkpt lat="44.40627" lon="5.59178">
        <ele>954.25</ele>
        <time>2022-05-17T10:11:30Z</time>
      </trkpt>
      <trkpt lat="44.40628" lon="5.59175">
        <ele>954.25</ele>
        <time>2022-05-17T10:12:06Z</time>
      </trkpt>
      <trkpt lat="44.40627" lon="5.5917">
        <ele>954.25</ele>
        <time>2022-05-17T10:12:43Z</time>
      </trkpt>
      <trkpt lat="44.40626" lon="5.59169">
        <ele>953.77</ele>
        <time>2022-05-17T10:13:19Z</time>
      </trkpt>
      <trkpt lat="44.40625" lon="5.59168">
        <ele>953.77</ele>
        <time>2022-05-17T10:13:55Z</time>
      </trkpt>
      <trkpt lat="44.40626" lon="5.59171">
        <ele>953.77</ele>
        <time>2022-05-17T10:14:29Z</time>
      </trkpt>
      <trkpt lat="44.40624" lon="5.59173">
        <ele>953.77</ele>
        <time>2022-05-17T10:15:04Z</time>
      </trkpt>
      <trkpt lat="44.40625" lon="5.59176">
        <ele>953.77</ele>
        <time>2022-05-17T10:15:40Z</time>
      </trkpt>
      <trkpt lat="44.40628" lon="5.59175">
        <ele>953.77</ele>
        <time>2022-05-17T10:16:17Z</time>
      </trkpt>
      <trkpt lat="44.40628" lon="5.59176">
        <ele>953.77</ele>
        <time>2022-05-17T10:16:52Z</time>
      </trkpt>
      <trkpt lat="44.40625" lon="5.59177">
        <ele>953.28</ele>
        <time>2022-05-17T10:17:31Z</time>
      </trkpt>
      <trkpt lat="44.40626" lon="5.59175">
        <ele>953.28</ele>
        <time>2022-05-17T10:18:06Z</time>
      </trkpt>
      <trkpt lat="44.40624" lon="5.59176">
        <ele>953.77</ele>
        <time>2022-05-17T10:18:41Z</time>
      </trkpt>
      <trkpt lat="44.40623" lon="5.59176">
        <ele>953.77</ele>
        <time>2022-05-17T10:19:17Z</time>
      </trkpt>
      <trkpt lat="44.40623" lon="5.59174">
        <ele>953.28</ele>
        <time>2022-05-17T10:19:55Z</time>
      </trkpt>
      <trkpt lat="44.40623" lon="5.59172">
        <ele>953.28</ele>
        <time>2022-05-17T10:20:38Z</time>
      </trkpt>
      <trkpt lat="44.40625" lon="5.5917">
        <ele>953.28</ele>
        <time>2022-05-17T10:21:20Z</time>
      </trkpt>
      <trkpt lat="44.40622" lon="5.59174">
        <ele>953.28</ele>
        <time>2022-05-17T10:22:02Z</time>
      </trkpt>
      <trkpt lat="44.40624" lon="5.59175">
        <ele>953.28</ele>
        <time>2022-05-17T10:22:34Z</time>
      </trkpt>
      <trkpt lat="44.40627" lon="5.59173">
        <ele>953.77</ele>
        <time>2022-05-17T10:23:07Z</time>
      </trkpt>
      <trkpt lat="44.40628" lon="5.59172">
        <ele>953.77</ele>
        <time>2022-05-17T10:23:38Z</time>
      </trkpt>
      <trkpt lat="44.40624" lon="5.59178">
        <ele>953.28</ele>
        <time>2022-05-17T10:24:14Z</time>
      </trkpt>
      <trkpt lat="44.40624" lon="5.59176">
        <ele>953.28</ele>
        <time>2022-05-17T10:24:43Z</time>
      </trkpt>
      <trkpt lat="44.40626" lon="5.59179">
        <ele>953.28</ele>
        <time>2022-05-17T10:25:14Z</time>
      </trkpt>
      <trkpt lat="44.40628" lon="5.59173">
        <ele>953.28</ele>
        <time>2022-05-17T10:25:52Z</time>
      </trkpt>
      <trkpt lat="44.40625" lon="5.59173">
        <ele>953.77</ele>
        <time>2022-05-17T10:26:27Z</time>
      </trkpt>
      <trkpt lat="44.40625" lon="5.59177">
        <ele>953.77</ele>
        <time>2022-05-17T10:27:10Z</time>
      </trkpt>
      <trkpt lat="44.40624" lon="5.59176">
        <ele>953.77</ele>
        <time>2022-05-17T10:27:43Z</time>
      </trkpt>
      <trkpt lat="44.40626" lon="5.59174">
        <ele>953.77</ele>
        <time>2022-05-17T10:28:18Z</time>
      </trkpt>
      <trkpt lat="44.40626" lon="5.59176">
        <ele>954.25</ele>
        <time>2022-05-17T10:29:00Z</time>
      </trkpt>
      <trkpt lat="44.40624" lon="5.59174">
        <ele>953.77</ele>
        <time>2022-05-17T10:29:43Z</time>
      </trkpt>
      <trkpt lat="44.40626" lon="5.59175">
        <ele>953.77</ele>
        <time>2022-05-17T10:30:15Z</time>
      </trkpt>
      <trkpt lat="44.40628" lon="5.59174">
        <ele>953.77</ele>
        <time>2022-05-17T10:30:57Z</time>
      </trkpt>
      <trkpt lat="44.4063" lon="5.59178">
        <ele>953.77</ele>
        <time>2022-05-17T10:31:38Z</time>
      </trkpt>
      <trkpt lat="44.40628" lon="5.59175">
        <ele>953.77</ele>
        <time>2022-05-17T10:32:05Z</time>
      </trkpt>
      <trkpt lat="44.40627" lon="5.59174">
        <ele>953.77</ele>
        <time>2022-05-17T10:32:39Z</time>
      </trkpt>
      <trkpt lat="44.40627" lon="5.59174">
        <ele>953.28</ele>
        <time>2022-05-17T10:33:16Z</time>
      </trkpt>
      <trkpt lat="44.40626" lon="5.59174">
        <ele>953.28</ele>
        <time>2022-05-17T10:33:52Z</time>
      </trkpt>
      <trkpt lat="44.40625" lon="5.59175">
        <ele>953.77</ele>
        <time>2022-05-17T10:34:27Z</time>
      </trkpt>
      <trkpt lat="44.40627" lon="5.59174">
        <ele>953.28</ele>
        <time>2022-05-17T10:35:02Z</time>
      </trkpt>
      <trkpt lat="44.40625" lon="5.59173">
        <ele>953.77</ele>
        <time>2022-05-17T10:35:51Z</time>
      </trkpt>
      <trkpt lat="44.40626" lon="5.59174">
        <ele>953.77</ele>
        <time>2022-05-17T10:36:28Z</time>
      </trkpt>
      <trkpt lat="44.40628" lon="5.59176">
        <ele>953.77</ele>
        <time>2022-05-17T10:37:01Z</time>
      </trkpt>
      <trkpt lat="44.40629" lon="5.59179">
        <ele>953.77</ele>
        <time>2022-05-17T10:37:35Z</time>
      </trkpt>
      <trkpt lat="44.40627" lon="5.59176">
        <ele>953.77</ele>
        <time>2022-05-17T10:38:05Z</time>
      </trkpt>
      <trkpt lat="44.40626" lon="5.59174">
        <ele>954.25</ele>
        <time>2022-05-17T10:38:36Z</time>
      </trkpt>
      <trkpt lat="44.40625" lon="5.59175">
        <ele>953.77</ele>
        <time>2022-05-17T10:39:14Z</time>
      </trkpt>
      <trkpt lat="44.40624" lon="5.59174">
        <ele>953.77</ele>
        <time>2022-05-17T10:39:51Z</time>
      </trkpt>
      <trkpt lat="44.40628" lon="5.59177">
        <ele>954.25</ele>
        <time>2022-05-17T10:40:22Z</time>
      </trkpt>
      <trkpt lat="44.40622" lon="5.59178">
        <ele>953.77</ele>
        <time>2022-05-17T10:40:57Z</time>
      </trkpt>
      <trkpt lat="44.40622" lon="5.59175">
        <ele>953.77</ele>
        <time>2022-05-17T10:41:37Z</time>
      </trkpt>
      <trkpt lat="44.40621" lon="5.5917">
        <ele>953.77</ele>
        <time>2022-05-17T10:42:16Z</time>
      </trkpt>
      <trkpt lat="44.40626" lon="5.59175">
        <ele>954.25</ele>
        <time>2022-05-17T10:42:56Z</time>
      </trkpt>
      <trkpt lat="44.40625" lon="5.59174">
        <ele>953.77</ele>
        <time>2022-05-17T10:43:37Z</time>
      </trkpt>
      <trkpt lat="44.40626" lon="5.59174">
        <ele>953.77</ele>
        <time>2022-05-17T10:44:11Z</time>
      </trkpt>
      <trkpt lat="44.40627" lon="5.59175">
        <ele>953.77</ele>
        <time>2022-05-17T10:44:50Z</time>
      </trkpt>
      <trkpt lat="44.40625" lon="5.59174">
        <ele>953.28</ele>
        <time>2022-05-17T10:45:25Z</time>
      </trkpt>
      <trkpt lat="44.40626" lon="5.59173">
        <ele>953.77</ele>
        <time>2022-05-17T10:45:58Z</time>
      </trkpt>
      <trkpt lat="44.40623" lon="5.59174">
        <ele>953.77</ele>
        <time>2022-05-17T10:46:33Z</time>
      </trkpt>
      <trkpt lat="44.40624" lon="5.59174">
        <ele>953.77</ele>
        <time>2022-05-17T10:47:02Z</time>
      </trkpt>
      <trkpt lat="44.40626" lon="5.59174">
        <ele>953.77</ele>
        <time>2022-05-17T10:47:41Z</time>
      </trkpt>
      <trkpt lat="44.40626" lon="5.59173">
        <ele>953.77</ele>
        <time>2022-05-17T10:48:12Z</time>
      </trkpt>
      <trkpt lat="44.40627" lon="5.59173">
        <ele>953.77</ele>
        <time>2022-05-17T10:48:49Z</time>
      </trkpt>
      <trkpt lat="44.40628" lon="5.5917">
        <ele>953.77</ele>
        <time>2022-05-17T10:49:25Z</time>
      </trkpt>
      <trkpt lat="44.40626" lon="5.59171">
        <ele>953.77</ele>
        <time>2022-05-17T10:50:04Z</time>
      </trkpt>
      <trkpt lat="44.40625" lon="5.59173">
        <ele>953.77</ele>
        <time>2022-05-17T10:50:44Z</time>
      </trkpt>
      <trkpt lat="44.40629" lon="5.59171">
        <ele>953.77</ele>
        <time>2022-05-17T10:51:16Z</time>
      </trkpt>
      <trkpt lat="44.40628" lon="5.59173">
        <ele>953.77</ele>
        <time>2022-05-17T10:51:54Z</time>
      </trkpt>
      <trkpt lat="44.40627" lon="5.59175">
        <ele>953.77</ele>
        <time>2022-05-17T10:52:38Z</time>
      </trkpt>
      <trkpt lat="44.40627" lon="5.59175">
        <ele>953.77</ele>
        <time>2022-05-17T10:53:15Z</time>
      </trkpt>
      <trkpt lat="44.40628" lon="5.59172">
        <ele>953.77</ele>
        <time>2022-05-17T10:53:56Z</time>
      </trkpt>
      <trkpt lat="44.40629" lon="5.59173">
        <ele>953.28</ele>
        <time>2022-05-17T10:54:33Z</time>
      </trkpt>
      <trkpt lat="44.40629" lon="5.59175">
        <ele>953.28</ele>
        <time>2022-05-17T10:55:09Z</time>
      </trkpt>
      <trkpt lat="44.4063" lon="5.59175">
        <ele>953.28</ele>
        <time>2022-05-17T10:55:46Z</time>
      </trkpt>
      <trkpt lat="44.4063" lon="5.59173">
        <ele>953.28</ele>
        <time>2022-05-17T10:56:03Z</time>
      </trkpt>
      <trkpt lat="44.4063" lon="5.59173">
        <ele>953.28</ele>
        <time>2022-05-17T10:56:27Z</time>
      </trkpt>
      <trkpt lat="44.40629" lon="5.59171">
        <ele>953.77</ele>
        <time>2022-05-17T10:56:45Z</time>
      </trkpt>
      <trkpt lat="44.40629" lon="5.59173">
        <ele>954.25</ele>
        <time>2022-05-17T10:57:02Z</time>
      </trkpt>
      <trkpt lat="44.40628" lon="5.59173">
        <ele>953.28</ele>
        <time>2022-05-17T10:57:17Z</time>
      </trkpt>
      <trkpt lat="44.40628" lon="5.59173">
        <ele>952.8</ele>
        <time>2022-05-17T10:57:54Z</time>
      </trkpt>
      <trkpt lat="44.40629" lon="5.59172">
        <ele>953.28</ele>
        <time>2022-05-17T10:58:25Z</time>
      </trkpt>
      <trkpt lat="44.40627" lon="5.59173">
        <ele>953.28</ele>
        <time>2022-05-17T10:58:55Z</time>
      </trkpt>
      <trkpt lat="44.40629" lon="5.59173">
        <ele>954.25</ele>
        <time>2022-05-17T10:59:05Z</time>
      </trkpt>
      <trkpt lat="44.40629" lon="5.59173">
        <ele>954.73</ele>
        <time>2022-05-17T10:59:23Z</time>
      </trkpt>
      <trkpt lat="44.40629" lon="5.59171">
        <ele>954.73</ele>
        <time>2022-05-17T10:59:40Z</time>
      </trkpt>
      <trkpt lat="44.4063" lon="5.59171">
        <ele>954.73</ele>
        <time>2022-05-17T11:00:05Z</time>
      </trkpt>
      <trkpt lat="44.40627" lon="5.5917">
        <ele>954.25</ele>
        <time>2022-05-17T11:00:36Z</time>
      </trkpt>
      <trkpt lat="44.40628" lon="5.59172">
        <ele>954.73</ele>
        <time>2022-05-17T11:00:55Z</time>
      </trkpt>
      <trkpt lat="44.4063" lon="5.59173">
        <ele>954.73</ele>
        <time>2022-05-17T11:01:13Z</time>
      </trkpt>
      <trkpt lat="44.40633" lon="5.59174">
        <ele>954.73</ele>
        <time>2022-05-17T11:01:39Z</time>
      </trkpt>
      <trkpt lat="44.40633" lon="5.59171">
        <ele>954.73</ele>
        <time>2022-05-17T11:02:05Z</time>
      </trkpt>
      <trkpt lat="44.40631" lon="5.5917">
        <ele>954.73</ele>
        <time>2022-05-17T11:02:31Z</time>
      </trkpt>
      <trkpt lat="44.40629" lon="5.59172">
        <ele>954.73</ele>
        <time>2022-05-17T11:02:48Z</time>
      </trkpt>
      <trkpt lat="44.40629" lon="5.59173">
        <ele>954.25</ele>
        <time>2022-05-17T11:03:11Z</time>
      </trkpt>
      <trkpt lat="44.40629" lon="5.59171">
        <ele>954.25</ele>
        <time>2022-05-17T11:03:30Z</time>
      </trkpt>
      <trkpt lat="44.40627" lon="5.59169">
        <ele>954.25</ele>
        <time>2022-05-17T11:03:55Z</time>
      </trkpt>
      <trkpt lat="44.40628" lon="5.5917">
        <ele>954.25</ele>
        <time>2022-05-17T11:04:33Z</time>
      </trkpt>
      <trkpt lat="44.40631" lon="5.59172">
        <ele>954.25</ele>
        <time>2022-05-17T11:04:44Z</time>
      </trkpt>
      <trkpt lat="44.40632" lon="5.59171">
        <ele>953.77</ele>
        <time>2022-05-17T11:05:01Z</time>
      </trkpt>
      <trkpt lat="44.40638" lon="5.59172">
        <ele>952.32</ele>
        <time>2022-05-17T11:05:15Z</time>
      </trkpt>
      <trkpt lat="44.40642" lon="5.59177">
        <ele>951.84</ele>
        <time>2022-05-17T11:05:26Z</time>
      </trkpt>
      <trkpt lat="44.40645" lon="5.59181">
        <ele>950.88</ele>
        <time>2022-05-17T11:05:36Z</time>
      </trkpt>
      <trkpt lat="44.40649" lon="5.59187">
        <ele>948.96</ele>
        <time>2022-05-17T11:05:49Z</time>
      </trkpt>
      <trkpt lat="44.40646" lon="5.59197">
        <ele>948</ele>
        <time>2022-05-17T11:06:01Z</time>
      </trkpt>
      <trkpt lat="44.40639" lon="5.59209">
        <ele>946.56</ele>
        <time>2022-05-17T11:06:16Z</time>
      </trkpt>
      <trkpt lat="44.40628" lon="5.59218">
        <ele>945.59</ele>
        <time>2022-05-17T11:06:33Z</time>
      </trkpt>
      <trkpt lat="44.40628" lon="5.59228">
        <ele>946.56</ele>
        <time>2022-05-17T11:06:43Z</time>
      </trkpt>
      <trkpt lat="44.40636" lon="5.59238">
        <ele>947.04</ele>
        <time>2022-05-17T11:06:58Z</time>
      </trkpt>
      <trkpt lat="44.40644" lon="5.59245">
        <ele>947.52</ele>
        <time>2022-05-17T11:07:12Z</time>
      </trkpt>
      <trkpt lat="44.40648" lon="5.59249">
        <ele>948</ele>
        <time>2022-05-17T11:07:29Z</time>
      </trkpt>
      <trkpt lat="44.40649" lon="5.5925">
        <ele>948</ele>
        <time>2022-05-17T11:07:49Z</time>
      </trkpt>
      <trkpt lat="44.4065" lon="5.59252">
        <ele>948</ele>
        <time>2022-05-17T11:08:18Z</time>
      </trkpt>
      <trkpt lat="44.40655" lon="5.59263">
        <ele>948.48</ele>
        <time>2022-05-17T11:08:31Z</time>
      </trkpt>
      <trkpt lat="44.40656" lon="5.59277">
        <ele>949.44</ele>
        <time>2022-05-17T11:08:46Z</time>
      </trkpt>
      <trkpt lat="44.40653" lon="5.5929">
        <ele>950.4</ele>
        <time>2022-05-17T11:09:00Z</time>
      </trkpt>
      <trkpt lat="44.40651" lon="5.59302">
        <ele>951.36</ele>
        <time>2022-05-17T11:09:13Z</time>
      </trkpt>
      <trkpt lat="44.40649" lon="5.59316">
        <ele>951.36</ele>
        <time>2022-05-17T11:09:28Z</time>
      </trkpt>
      <trkpt lat="44.40645" lon="5.59326">
        <ele>952.32</ele>
        <time>2022-05-17T11:09:41Z</time>
      </trkpt>
      <trkpt lat="44.40641" lon="5.59337">
        <ele>952.8</ele>
        <time>2022-05-17T11:09:54Z</time>
      </trkpt>
      <trkpt lat="44.40637" lon="5.59348">
        <ele>953.77</ele>
        <time>2022-05-17T11:10:08Z</time>
      </trkpt>
      <trkpt lat="44.40633" lon="5.59356">
        <ele>954.25</ele>
        <time>2022-05-17T11:10:22Z</time>
      </trkpt>
      <trkpt lat="44.40631" lon="5.59363">
        <ele>954.73</ele>
        <time>2022-05-17T11:10:37Z</time>
      </trkpt>
      <trkpt lat="44.40628" lon="5.59372">
        <ele>955.69</ele>
        <time>2022-05-17T11:10:50Z</time>
      </trkpt>
      <trkpt lat="44.40627" lon="5.59385">
        <ele>956.17</ele>
        <time>2022-05-17T11:11:04Z</time>
      </trkpt>
      <trkpt lat="44.40624" lon="5.59393">
        <ele>956.65</ele>
        <time>2022-05-17T11:11:17Z</time>
      </trkpt>
      <trkpt lat="44.4062" lon="5.59405">
        <ele>957.61</ele>
        <time>2022-05-17T11:11:31Z</time>
      </trkpt>
      <trkpt lat="44.40614" lon="5.59414">
        <ele>958.09</ele>
        <time>2022-05-17T11:11:44Z</time>
      </trkpt>
      <trkpt lat="44.40606" lon="5.59417">
        <ele>959.05</ele>
        <time>2022-05-17T11:11:57Z</time>
      </trkpt>
      <trkpt lat="44.40596" lon="5.59421">
        <ele>960.01</ele>
        <time>2022-05-17T11:12:12Z</time>
      </trkpt>
      <trkpt lat="44.4059" lon="5.59423">
        <ele>960.98</ele>
        <time>2022-05-17T11:12:26Z</time>
      </trkpt>
      <trkpt lat="44.40584" lon="5.59425">
        <ele>962.42</ele>
        <time>2022-05-17T11:12:39Z</time>
      </trkpt>
      <trkpt lat="44.40576" lon="5.59429">
        <ele>963.86</ele>
        <time>2022-05-17T11:12:54Z</time>
      </trkpt>
      <trkpt lat="44.40574" lon="5.59431">
        <ele>963.86</ele>
        <time>2022-05-17T11:13:10Z</time>
      </trkpt>
      <trkpt lat="44.40573" lon="5.59432">
        <ele>963.86</ele>
        <time>2022-05-17T11:13:24Z</time>
      </trkpt>
      <trkpt lat="44.40574" lon="5.59434">
        <ele>963.38</ele>
        <time>2022-05-17T11:13:38Z</time>
      </trkpt>
      <trkpt lat="44.40573" lon="5.5943">
        <ele>963.86</ele>
        <time>2022-05-17T11:14:00Z</time>
      </trkpt>
      <trkpt lat="44.40574" lon="5.59429">
        <ele>963.38</ele>
        <time>2022-05-17T11:14:19Z</time>
      </trkpt>
      <trkpt lat="44.40579" lon="5.5943">
        <ele>962.42</ele>
        <time>2022-05-17T11:14:38Z</time>
      </trkpt>
      <trkpt lat="44.40589" lon="5.5943">
        <ele>960.98</ele>
        <time>2022-05-17T11:14:51Z</time>
      </trkpt>
      <trkpt lat="44.40599" lon="5.59428">
        <ele>958.57</ele>
        <time>2022-05-17T11:15:05Z</time>
      </trkpt>
      <trkpt lat="44.40608" lon="5.59428">
        <ele>957.13</ele>
        <time>2022-05-17T11:15:19Z</time>
      </trkpt>
      <trkpt lat="44.40618" lon="5.59423">
        <ele>955.21</ele>
        <time>2022-05-17T11:15:34Z</time>
      </trkpt>
      <trkpt lat="44.40627" lon="5.59416">
        <ele>953.77</ele>
        <time>2022-05-17T11:15:49Z</time>
      </trkpt>
      <trkpt lat="44.40637" lon="5.59419">
        <ele>951.36</ele>
        <time>2022-05-17T11:16:04Z</time>
      </trkpt>
      <trkpt lat="44.40645" lon="5.59418">
        <ele>949.44</ele>
        <time>2022-05-17T11:16:21Z</time>
      </trkpt>
      <trkpt lat="44.40643" lon="5.59417">
        <ele>950.4</ele>
        <time>2022-05-17T11:16:37Z</time>
      </trkpt>
      <trkpt lat="44.40646" lon="5.59412">
        <ele>950.4</ele>
        <time>2022-05-17T11:16:49Z</time>
      </trkpt>
      <trkpt lat="44.40648" lon="5.5941">
        <ele>949.92</ele>
        <time>2022-05-17T11:17:02Z</time>
      </trkpt>
      <trkpt lat="44.40649" lon="5.59412">
        <ele>949.92</ele>
        <time>2022-05-17T11:17:22Z</time>
      </trkpt>
      <trkpt lat="44.40651" lon="5.59413">
        <ele>949.44</ele>
        <time>2022-05-17T11:17:53Z</time>
      </trkpt>
      <trkpt lat="44.40651" lon="5.59413">
        <ele>948.96</ele>
        <time>2022-05-17T11:18:19Z</time>
      </trkpt>
      <trkpt lat="44.4065" lon="5.59416">
        <ele>948.96</ele>
        <time>2022-05-17T11:18:32Z</time>
      </trkpt>
      <trkpt lat="44.40648" lon="5.59422">
        <ele>948</ele>
        <time>2022-05-17T11:18:44Z</time>
      </trkpt>
      <trkpt lat="44.40643" lon="5.59432">
        <ele>946.56</ele>
        <time>2022-05-17T11:18:59Z</time>
      </trkpt>
      <trkpt lat="44.40638" lon="5.59441">
        <ele>945.11</ele>
        <time>2022-05-17T11:19:15Z</time>
      </trkpt>
      <trkpt lat="44.40634" lon="5.59446">
        <ele>944.63</ele>
        <time>2022-05-17T11:19:28Z</time>
      </trkpt>
      <trkpt lat="44.4063" lon="5.59456">
        <ele>943.19</ele>
        <time>2022-05-17T11:19:43Z</time>
      </trkpt>
      <trkpt lat="44.40624" lon="5.59475">
        <ele>942.23</ele>
        <time>2022-05-17T11:20:02Z</time>
      </trkpt>
      <trkpt lat="44.40617" lon="5.59488">
        <ele>942.23</ele>
        <time>2022-05-17T11:20:18Z</time>
      </trkpt>
      <trkpt lat="44.40614" lon="5.595">
        <ele>942.23</ele>
        <time>2022-05-17T11:20:32Z</time>
      </trkpt>
      <trkpt lat="44.40609" lon="5.59516">
        <ele>942.71</ele>
        <time>2022-05-17T11:20:47Z</time>
      </trkpt>
      <trkpt lat="44.40606" lon="5.59531">
        <ele>942.71</ele>
        <time>2022-05-17T11:21:01Z</time>
      </trkpt>
      <trkpt lat="44.406" lon="5.59545">
        <ele>942.71</ele>
        <time>2022-05-17T11:21:15Z</time>
      </trkpt>
      <trkpt lat="44.40596" lon="5.59563">
        <ele>942.23</ele>
        <time>2022-05-17T11:21:31Z</time>
      </trkpt>
      <trkpt lat="44.40592" lon="5.59582">
        <ele>941.75</ele>
        <time>2022-05-17T11:21:48Z</time>
      </trkpt>
      <trkpt lat="44.40587" lon="5.59593">
        <ele>943.19</ele>
        <time>2022-05-17T11:22:01Z</time>
      </trkpt>
      <trkpt lat="44.40583" lon="5.59606">
        <ele>943.19</ele>
        <time>2022-05-17T11:22:15Z</time>
      </trkpt>
      <trkpt lat="44.40587" lon="5.59619">
        <ele>944.15</ele>
        <time>2022-05-17T11:22:29Z</time>
      </trkpt>
      <trkpt lat="44.40592" lon="5.59631">
        <ele>945.11</ele>
        <time>2022-05-17T11:22:42Z</time>
      </trkpt>
      <trkpt lat="44.40596" lon="5.59643">
        <ele>946.07</ele>
        <time>2022-05-17T11:22:55Z</time>
      </trkpt>
      <trkpt lat="44.40601" lon="5.59659">
        <ele>946.56</ele>
        <time>2022-05-17T11:23:10Z</time>
      </trkpt>
      <trkpt lat="44.40602" lon="5.59673">
        <ele>947.04</ele>
        <time>2022-05-17T11:23:23Z</time>
      </trkpt>
      <trkpt lat="44.406" lon="5.59679">
        <ele>947.04</ele>
        <time>2022-05-17T11:23:36Z</time>
      </trkpt>
      <trkpt lat="44.406" lon="5.59687">
        <ele>947.04</ele>
        <time>2022-05-17T11:23:51Z</time>
      </trkpt>
      <trkpt lat="44.40598" lon="5.59696">
        <ele>947.04</ele>
        <time>2022-05-17T11:24:06Z</time>
      </trkpt>
      <trkpt lat="44.40597" lon="5.59697">
        <ele>947.52</ele>
        <time>2022-05-17T11:24:25Z</time>
      </trkpt>
      <trkpt lat="44.40596" lon="5.59709">
        <ele>947.52</ele>
        <time>2022-05-17T11:24:39Z</time>
      </trkpt>
      <trkpt lat="44.40596" lon="5.59715">
        <ele>947.52</ele>
        <time>2022-05-17T11:24:52Z</time>
      </trkpt>
      <trkpt lat="44.40593" lon="5.59726">
        <ele>948</ele>
        <time>2022-05-17T11:25:05Z</time>
      </trkpt>
      <trkpt lat="44.40591" lon="5.59742">
        <ele>948</ele>
        <time>2022-05-17T11:25:21Z</time>
      </trkpt>
      <trkpt lat="44.40588" lon="5.59763">
        <ele>948</ele>
        <time>2022-05-17T11:25:39Z</time>
      </trkpt>
      <trkpt lat="44.40585" lon="5.59783">
        <ele>947.52</ele>
        <time>2022-05-17T11:25:56Z</time>
      </trkpt>
      <trkpt lat="44.40579" lon="5.598">
        <ele>946.56</ele>
        <time>2022-05-17T11:26:11Z</time>
      </trkpt>
      <trkpt lat="44.40578" lon="5.59804">
        <ele>946.07</ele>
        <time>2022-05-17T11:26:14Z</time>
      </trkpt>
      <trkpt lat="44.40577" lon="5.59808">
        <ele>945.59</ele>
        <time>2022-05-17T11:26:19Z</time>
      </trkpt>
      <trkpt lat="44.40577" lon="5.59811">
        <ele>945.59</ele>
        <time>2022-05-17T11:26:21Z</time>
      </trkpt>
      <trkpt lat="44.40581" lon="5.59822">
        <ele>945.59</ele>
        <time>2022-05-17T11:26:35Z</time>
      </trkpt>
      <trkpt lat="44.4059" lon="5.59836">
        <ele>945.11</ele>
        <time>2022-05-17T11:26:53Z</time>
      </trkpt>
      <trkpt lat="44.406" lon="5.5985">
        <ele>945.11</ele>
        <time>2022-05-17T11:27:10Z</time>
      </trkpt>
      <trkpt lat="44.40609" lon="5.59856">
        <ele>945.11</ele>
        <time>2022-05-17T11:27:27Z</time>
      </trkpt>
      <trkpt lat="44.40618" lon="5.59862">
        <ele>945.11</ele>
        <time>2022-05-17T11:27:42Z</time>
      </trkpt>
      <trkpt lat="44.40629" lon="5.59871">
        <ele>945.11</ele>
        <time>2022-05-17T11:27:58Z</time>
      </trkpt>
      <trkpt lat="44.40639" lon="5.5988">
        <ele>945.11</ele>
        <time>2022-05-17T11:28:12Z</time>
      </trkpt>
      <trkpt lat="44.4065" lon="5.59888">
        <ele>946.07</ele>
        <time>2022-05-17T11:28:28Z</time>
      </trkpt>
      <trkpt lat="44.40662" lon="5.59896">
        <ele>948</ele>
        <time>2022-05-17T11:28:43Z</time>
      </trkpt>
      <trkpt lat="44.40667" lon="5.59902">
        <ele>948</ele>
        <time>2022-05-17T11:28:59Z</time>
      </trkpt>
      <trkpt lat="44.40678" lon="5.59914">
        <ele>946.56</ele>
        <time>2022-05-17T11:29:16Z</time>
      </trkpt>
      <trkpt lat="44.40685" lon="5.59921">
        <ele>946.07</ele>
        <time>2022-05-17T11:29:31Z</time>
      </trkpt>
      <trkpt lat="44.40687" lon="5.59926">
        <ele>945.59</ele>
        <time>2022-05-17T11:29:48Z</time>
      </trkpt>
      <trkpt lat="44.40693" lon="5.59933">
        <ele>944.63</ele>
        <time>2022-05-17T11:30:02Z</time>
      </trkpt>
      <trkpt lat="44.40694" lon="5.59937">
        <ele>944.15</ele>
        <time>2022-05-17T11:30:14Z</time>
      </trkpt>
      <trkpt lat="44.40699" lon="5.59947">
        <ele>943.67</ele>
        <time>2022-05-17T11:30:29Z</time>
      </trkpt>
      <trkpt lat="44.40709" lon="5.59961">
        <ele>942.23</ele>
        <time>2022-05-17T11:30:46Z</time>
      </trkpt>
      <trkpt lat="44.40718" lon="5.59975">
        <ele>940.79</ele>
        <time>2022-05-17T11:31:04Z</time>
      </trkpt>
      <trkpt lat="44.40729" lon="5.59988">
        <ele>939.35</ele>
        <time>2022-05-17T11:31:21Z</time>
      </trkpt>
      <trkpt lat="44.40737" lon="5.59999">
        <ele>938.38</ele>
        <time>2022-05-17T11:31:34Z</time>
      </trkpt>
      <trkpt lat="44.40747" lon="5.6001">
        <ele>936.94</ele>
        <time>2022-05-17T11:31:50Z</time>
      </trkpt>
      <trkpt lat="44.40749" lon="5.60014">
        <ele>936.46</ele>
        <time>2022-05-17T11:32:08Z</time>
      </trkpt>
      <trkpt lat="44.40759" lon="5.60025">
        <ele>935.5</ele>
        <time>2022-05-17T11:32:25Z</time>
      </trkpt>
      <trkpt lat="44.40769" lon="5.60039">
        <ele>934.54</ele>
        <time>2022-05-17T11:32:41Z</time>
      </trkpt>
      <trkpt lat="44.40774" lon="5.60053">
        <ele>933.58</ele>
        <time>2022-05-17T11:32:55Z</time>
      </trkpt>
      <trkpt lat="44.40786" lon="5.60058">
        <ele>932.14</ele>
        <time>2022-05-17T11:33:12Z</time>
      </trkpt>
      <trkpt lat="44.40794" lon="5.60066">
        <ele>930.21</ele>
        <time>2022-05-17T11:33:25Z</time>
      </trkpt>
      <trkpt lat="44.40804" lon="5.60076">
        <ele>928.29</ele>
        <time>2022-05-17T11:33:41Z</time>
      </trkpt>
      <trkpt lat="44.40814" lon="5.60091">
        <ele>926.37</ele>
        <time>2022-05-17T11:33:58Z</time>
      </trkpt>
      <trkpt lat="44.40822" lon="5.60105">
        <ele>924.93</ele>
        <time>2022-05-17T11:34:14Z</time>
      </trkpt>
      <trkpt lat="44.40833" lon="5.60111">
        <ele>923</ele>
        <time>2022-05-17T11:34:32Z</time>
      </trkpt>
      <trkpt lat="44.40841" lon="5.60119">
        <ele>922.04</ele>
        <time>2022-05-17T11:34:46Z</time>
      </trkpt>
      <trkpt lat="44.4085" lon="5.60129">
        <ele>921.08</ele>
        <time>2022-05-17T11:35:01Z</time>
      </trkpt>
      <trkpt lat="44.40858" lon="5.60142">
        <ele>918.68</ele>
        <time>2022-05-17T11:35:17Z</time>
      </trkpt>
      <trkpt lat="44.40867" lon="5.60151">
        <ele>917.24</ele>
        <time>2022-05-17T11:35:34Z</time>
      </trkpt>
      <trkpt lat="44.4088" lon="5.60164">
        <ele>915.79</ele>
        <time>2022-05-17T11:35:53Z</time>
      </trkpt>
      <trkpt lat="44.40894" lon="5.60175">
        <ele>914.35</ele>
        <time>2022-05-17T11:36:11Z</time>
      </trkpt>
      <trkpt lat="44.40906" lon="5.60185">
        <ele>913.39</ele>
        <time>2022-05-17T11:36:27Z</time>
      </trkpt>
      <trkpt lat="44.40917" lon="5.60195">
        <ele>910.99</ele>
        <time>2022-05-17T11:36:44Z</time>
      </trkpt>
      <trkpt lat="44.40929" lon="5.60201">
        <ele>908.58</ele>
        <time>2022-05-17T11:37:00Z</time>
      </trkpt>
      <trkpt lat="44.40938" lon="5.60216">
        <ele>906.66</ele>
        <time>2022-05-17T11:37:17Z</time>
      </trkpt>
      <trkpt lat="44.40945" lon="5.60226">
        <ele>906.18</ele>
        <time>2022-05-17T11:37:32Z</time>
      </trkpt>
      <trkpt lat="44.40954" lon="5.60247">
        <ele>904.74</ele>
        <time>2022-05-17T11:37:51Z</time>
      </trkpt>
      <trkpt lat="44.40955" lon="5.60254">
        <ele>904.74</ele>
        <time>2022-05-17T11:38:04Z</time>
      </trkpt>
      <trkpt lat="44.4096" lon="5.60264">
        <ele>903.3</ele>
        <time>2022-05-17T11:38:18Z</time>
      </trkpt>
      <trkpt lat="44.4096" lon="5.60278">
        <ele>902.33</ele>
        <time>2022-05-17T11:38:33Z</time>
      </trkpt>
      <trkpt lat="44.4096" lon="5.60279">
        <ele>902.33</ele>
        <time>2022-05-17T11:38:48Z</time>
      </trkpt>
      <trkpt lat="44.4096" lon="5.60288">
        <ele>901.37</ele>
        <time>2022-05-17T11:39:05Z</time>
      </trkpt>
      <trkpt lat="44.40962" lon="5.60298">
        <ele>900.41</ele>
        <time>2022-05-17T11:39:18Z</time>
      </trkpt>
      <trkpt lat="44.40968" lon="5.60314">
        <ele>899.45</ele>
        <time>2022-05-17T11:39:35Z</time>
      </trkpt>
      <trkpt lat="44.40969" lon="5.60317">
        <ele>898.49</ele>
        <time>2022-05-17T11:39:49Z</time>
      </trkpt>
      <trkpt lat="44.40968" lon="5.60316">
        <ele>898.49</ele>
        <time>2022-05-17T11:40:08Z</time>
      </trkpt>
      <trkpt lat="44.40971" lon="5.60319">
        <ele>898.97</ele>
        <time>2022-05-17T11:40:25Z</time>
      </trkpt>
      <trkpt lat="44.40974" lon="5.60321">
        <ele>898.49</ele>
        <time>2022-05-17T11:40:44Z</time>
      </trkpt>
      <trkpt lat="44.40979" lon="5.60328">
        <ele>897.53</ele>
        <time>2022-05-17T11:40:59Z</time>
      </trkpt>
      <trkpt lat="44.40987" lon="5.60341">
        <ele>896.09</ele>
        <time>2022-05-17T11:41:14Z</time>
      </trkpt>
      <trkpt lat="44.40995" lon="5.60354">
        <ele>895.12</ele>
        <time>2022-05-17T11:41:30Z</time>
      </trkpt>
      <trkpt lat="44.41003" lon="5.60365">
        <ele>893.68</ele>
        <time>2022-05-17T11:41:45Z</time>
      </trkpt>
      <trkpt lat="44.41011" lon="5.60374">
        <ele>892.24</ele>
        <time>2022-05-17T11:41:59Z</time>
      </trkpt>
      <trkpt lat="44.41023" lon="5.60377">
        <ele>890.32</ele>
        <time>2022-05-17T11:42:15Z</time>
      </trkpt>
      <trkpt lat="44.41035" lon="5.60379">
        <ele>887.91</ele>
        <time>2022-05-17T11:42:31Z</time>
      </trkpt>
      <trkpt lat="44.41047" lon="5.60384">
        <ele>885.99</ele>
        <time>2022-05-17T11:42:47Z</time>
      </trkpt>
      <trkpt lat="44.41059" lon="5.60386">
        <ele>885.03</ele>
        <time>2022-05-17T11:43:03Z</time>
      </trkpt>
      <trkpt lat="44.41073" lon="5.60396">
        <ele>882.63</ele>
        <time>2022-05-17T11:43:21Z</time>
      </trkpt>
      <trkpt lat="44.41083" lon="5.60408">
        <ele>880.71</ele>
        <time>2022-05-17T11:43:37Z</time>
      </trkpt>
      <trkpt lat="44.41092" lon="5.60417">
        <ele>878.78</ele>
        <time>2022-05-17T11:43:53Z</time>
      </trkpt>
      <trkpt lat="44.41101" lon="5.60429">
        <ele>876.38</ele>
        <time>2022-05-17T11:44:11Z</time>
      </trkpt>
      <trkpt lat="44.41111" lon="5.60443">
        <ele>873.98</ele>
        <time>2022-05-17T11:44:27Z</time>
      </trkpt>
      <trkpt lat="44.41116" lon="5.6045">
        <ele>873.01</ele>
        <time>2022-05-17T11:44:35Z</time>
      </trkpt>
      <trkpt lat="44.41124" lon="5.60464">
        <ele>872.05</ele>
        <time>2022-05-17T11:44:52Z</time>
      </trkpt>
      <trkpt lat="44.4113" lon="5.60476">
        <ele>871.09</ele>
        <time>2022-05-17T11:45:07Z</time>
      </trkpt>
      <trkpt lat="44.41137" lon="5.60482">
        <ele>869.17</ele>
        <time>2022-05-17T11:45:22Z</time>
      </trkpt>
      <trkpt lat="44.4115" lon="5.60487">
        <ele>866.77</ele>
        <time>2022-05-17T11:45:38Z</time>
      </trkpt>
      <trkpt lat="44.41161" lon="5.60494">
        <ele>864.84</ele>
        <time>2022-05-17T11:45:54Z</time>
      </trkpt>
      <trkpt lat="44.41169" lon="5.60499">
        <ele>863.4</ele>
        <time>2022-05-17T11:46:06Z</time>
      </trkpt>
      <trkpt lat="44.41173" lon="5.605">
        <ele>862.44</ele>
        <time>2022-05-17T11:46:12Z</time>
      </trkpt>
      <trkpt lat="44.41175" lon="5.60501">
        <ele>862.44</ele>
        <time>2022-05-17T11:46:14Z</time>
      </trkpt>
      <trkpt lat="44.41183" lon="5.60502">
        <ele>861</ele>
        <time>2022-05-17T11:46:26Z</time>
      </trkpt>
      <trkpt lat="44.41185" lon="5.60501">
        <ele>861</ele>
        <time>2022-05-17T11:46:28Z</time>
      </trkpt>
      <trkpt lat="44.41197" lon="5.60502">
        <ele>860.04</ele>
        <time>2022-05-17T11:46:41Z</time>
      </trkpt>
      <trkpt lat="44.41209" lon="5.60499">
        <ele>858.59</ele>
        <time>2022-05-17T11:46:56Z</time>
      </trkpt>
      <trkpt lat="44.41216" lon="5.60491">
        <ele>857.63</ele>
        <time>2022-05-17T11:47:08Z</time>
      </trkpt>
      <trkpt lat="44.41224" lon="5.60495">
        <ele>855.71</ele>
        <time>2022-05-17T11:47:18Z</time>
      </trkpt>
      <trkpt lat="44.41231" lon="5.60493">
        <ele>854.75</ele>
        <time>2022-05-17T11:47:26Z</time>
      </trkpt>
      <trkpt lat="44.41241" lon="5.60494">
        <ele>854.75</ele>
        <time>2022-05-17T11:47:40Z</time>
      </trkpt>
      <trkpt lat="44.4125" lon="5.60499">
        <ele>853.31</ele>
        <time>2022-05-17T11:47:54Z</time>
      </trkpt>
      <trkpt lat="44.41255" lon="5.60503">
        <ele>852.35</ele>
        <time>2022-05-17T11:48:09Z</time>
      </trkpt>
      <trkpt lat="44.41256" lon="5.60503">
        <ele>852.35</ele>
        <time>2022-05-17T11:48:34Z</time>
      </trkpt>
      <trkpt lat="44.41255" lon="5.60504">
        <ele>851.87</ele>
        <time>2022-05-17T11:48:58Z</time>
      </trkpt>
      <trkpt lat="44.41254" lon="5.60503">
        <ele>852.35</ele>
        <time>2022-05-17T11:49:23Z</time>
      </trkpt>
      <trkpt lat="44.41254" lon="5.60503">
        <ele>852.35</ele>
        <time>2022-05-17T11:49:43Z</time>
      </trkpt>
      <trkpt lat="44.41255" lon="5.60503">
        <ele>852.35</ele>
        <time>2022-05-17T11:50:07Z</time>
      </trkpt>
      <trkpt lat="44.41253" lon="5.60503">
        <ele>851.87</ele>
        <time>2022-05-17T11:50:34Z</time>
      </trkpt>
      <trkpt lat="44.41253" lon="5.605">
        <ele>851.87</ele>
        <time>2022-05-17T11:51:06Z</time>
      </trkpt>
      <trkpt lat="44.41255" lon="5.60504">
        <ele>851.87</ele>
        <time>2022-05-17T11:51:27Z</time>
      </trkpt>
      <trkpt lat="44.41259" lon="5.60515">
        <ele>851.38</ele>
        <time>2022-05-17T11:51:39Z</time>
      </trkpt>
      <trkpt lat="44.41258" lon="5.60521">
        <ele>851.87</ele>
        <time>2022-05-17T11:51:43Z</time>
      </trkpt>
      <trkpt lat="44.41263" lon="5.60535">
        <ele>850.42</ele>
        <time>2022-05-17T11:52:01Z</time>
      </trkpt>
      <trkpt lat="44.41272" lon="5.60542">
        <ele>848.98</ele>
        <time>2022-05-17T11:52:15Z</time>
      </trkpt>
      <trkpt lat="44.41274" lon="5.60548">
        <ele>848.02</ele>
        <time>2022-05-17T11:52:19Z</time>
      </trkpt>
      <trkpt lat="44.41283" lon="5.60564">
        <ele>846.1</ele>
        <time>2022-05-17T11:52:36Z</time>
      </trkpt>
      <trkpt lat="44.41289" lon="5.60581">
        <ele>845.14</ele>
        <time>2022-05-17T11:52:52Z</time>
      </trkpt>
      <trkpt lat="44.41293" lon="5.60607">
        <ele>843.69</ele>
        <time>2022-05-17T11:53:12Z</time>
      </trkpt>
      <trkpt lat="44.41294" lon="5.60614">
        <ele>843.21</ele>
        <time>2022-05-17T11:53:17Z</time>
      </trkpt>
      <trkpt lat="44.41295" lon="5.60618">
        <ele>843.21</ele>
        <time>2022-05-17T11:53:20Z</time>
      </trkpt>
      <trkpt lat="44.41295" lon="5.60642">
        <ele>844.18</ele>
        <time>2022-05-17T11:53:38Z</time>
      </trkpt>
      <trkpt lat="44.41298" lon="5.60662">
        <ele>845.62</ele>
        <time>2022-05-17T11:53:54Z</time>
      </trkpt>
      <trkpt lat="44.41305" lon="5.60667">
        <ele>845.14</ele>
        <time>2022-05-17T11:54:09Z</time>
      </trkpt>
      <trkpt lat="44.41321" lon="5.60669">
        <ele>844.66</ele>
        <time>2022-05-17T11:54:28Z</time>
      </trkpt>
      <trkpt lat="44.41338" lon="5.60677">
        <ele>843.69</ele>
        <time>2022-05-17T11:54:47Z</time>
      </trkpt>
      <trkpt lat="44.41356" lon="5.60688">
        <ele>842.73</ele>
        <time>2022-05-17T11:55:08Z</time>
      </trkpt>
      <trkpt lat="44.4137" lon="5.60707">
        <ele>841.77</ele>
        <time>2022-05-17T11:55:25Z</time>
      </trkpt>
      <trkpt lat="44.4138" lon="5.60726">
        <ele>840.81</ele>
        <time>2022-05-17T11:55:43Z</time>
      </trkpt>
      <trkpt lat="44.41386" lon="5.60745">
        <ele>839.85</ele>
        <time>2022-05-17T11:56:00Z</time>
      </trkpt>
      <trkpt lat="44.41397" lon="5.6077">
        <ele>838.41</ele>
        <time>2022-05-17T11:56:22Z</time>
      </trkpt>
      <trkpt lat="44.41402" lon="5.60789">
        <ele>836.96</ele>
        <time>2022-05-17T11:56:39Z</time>
      </trkpt>
      <trkpt lat="44.41409" lon="5.6081">
        <ele>836</ele>
        <time>2022-05-17T11:56:56Z</time>
      </trkpt>
      <trkpt lat="44.41417" lon="5.60837">
        <ele>835.04</ele>
        <time>2022-05-17T11:57:15Z</time>
      </trkpt>
      <trkpt lat="44.41421" lon="5.60864">
        <ele>835.04</ele>
        <time>2022-05-17T11:57:34Z</time>
      </trkpt>
      <trkpt lat="44.41424" lon="5.60887">
        <ele>834.56</ele>
        <time>2022-05-17T11:57:51Z</time>
      </trkpt>
      <trkpt lat="44.4143" lon="5.60915">
        <ele>834.08</ele>
        <time>2022-05-17T11:58:11Z</time>
      </trkpt>
      <trkpt lat="44.41434" lon="5.60944">
        <ele>833.6</ele>
        <time>2022-05-17T11:58:31Z</time>
      </trkpt>
      <trkpt lat="44.41438" lon="5.60971">
        <ele>833.12</ele>
        <time>2022-05-17T11:58:50Z</time>
      </trkpt>
      <trkpt lat="44.41441" lon="5.60992">
        <ele>832.64</ele>
        <time>2022-05-17T11:59:07Z</time>
      </trkpt>
      <trkpt lat="44.4144" lon="5.61022">
        <ele>832.16</ele>
        <time>2022-05-17T11:59:27Z</time>
      </trkpt>
      <trkpt lat="44.41435" lon="5.61052">
        <ele>831.68</ele>
        <time>2022-05-17T11:59:49Z</time>
      </trkpt>
      <trkpt lat="44.41435" lon="5.61054">
        <ele>831.68</ele>
        <time>2022-05-17T11:59:50Z</time>
      </trkpt>
      <trkpt lat="44.41433" lon="5.61079">
        <ele>831.2</ele>
        <time>2022-05-17T12:00:09Z</time>
      </trkpt>
      <trkpt lat="44.41433" lon="5.61101">
        <ele>831.2</ele>
        <time>2022-05-17T12:00:27Z</time>
      </trkpt>
      <trkpt lat="44.41444" lon="5.61128">
        <ele>830.72</ele>
        <time>2022-05-17T12:00:50Z</time>
      </trkpt>
      <trkpt lat="44.41455" lon="5.61141">
        <ele>831.2</ele>
        <time>2022-05-17T12:01:07Z</time>
      </trkpt>
      <trkpt lat="44.41469" lon="5.61147">
        <ele>831.68</ele>
        <time>2022-05-17T12:01:25Z</time>
      </trkpt>
      <trkpt lat="44.41485" lon="5.61148">
        <ele>831.68</ele>
        <time>2022-05-17T12:01:43Z</time>
      </trkpt>
      <trkpt lat="44.41502" lon="5.61149">
        <ele>832.16</ele>
        <time>2022-05-17T12:02:00Z</time>
      </trkpt>
      <trkpt lat="44.41518" lon="5.61147">
        <ele>832.64</ele>
        <time>2022-05-17T12:02:17Z</time>
      </trkpt>
      <trkpt lat="44.41535" lon="5.61139">
        <ele>833.6</ele>
        <time>2022-05-17T12:02:36Z</time>
      </trkpt>
      <trkpt lat="44.41536" lon="5.61139">
        <ele>833.6</ele>
        <time>2022-05-17T12:02:37Z</time>
      </trkpt>
      <trkpt lat="44.41553" lon="5.61135">
        <ele>834.08</ele>
        <time>2022-05-17T12:02:55Z</time>
      </trkpt>
      <trkpt lat="44.41558" lon="5.61138">
        <ele>834.08</ele>
        <time>2022-05-17T12:03:00Z</time>
      </trkpt>
      <trkpt lat="44.41559" lon="5.61163">
        <ele>833.6</ele>
        <time>2022-05-17T12:03:18Z</time>
      </trkpt>
      <trkpt lat="44.41558" lon="5.61188">
        <ele>833.12</ele>
        <time>2022-05-17T12:03:37Z</time>
      </trkpt>
      <trkpt lat="44.41555" lon="5.61222">
        <ele>832.64</ele>
        <time>2022-05-17T12:04:01Z</time>
      </trkpt>
      <trkpt lat="44.41552" lon="5.61252">
        <ele>832.16</ele>
        <time>2022-05-17T12:04:22Z</time>
      </trkpt>
      <trkpt lat="44.41551" lon="5.61278">
        <ele>831.68</ele>
        <time>2022-05-17T12:04:42Z</time>
      </trkpt>
      <trkpt lat="44.41552" lon="5.61303">
        <ele>830.72</ele>
        <time>2022-05-17T12:05:01Z</time>
      </trkpt>
      <trkpt lat="44.41558" lon="5.61329">
        <ele>830.24</ele>
        <time>2022-05-17T12:05:21Z</time>
      </trkpt>
      <trkpt lat="44.41562" lon="5.61351">
        <ele>829.76</ele>
        <time>2022-05-17T12:05:39Z</time>
      </trkpt>
      <trkpt lat="44.41568" lon="5.61371">
        <ele>829.27</ele>
        <time>2022-05-17T12:05:56Z</time>
      </trkpt>
      <trkpt lat="44.41568" lon="5.61391">
        <ele>829.27</ele>
        <time>2022-05-17T12:06:12Z</time>
      </trkpt>
      <trkpt lat="44.41563" lon="5.61402">
        <ele>829.27</ele>
        <time>2022-05-17T12:06:28Z</time>
      </trkpt>
      <trkpt lat="44.41563" lon="5.61402">
        <ele>828.79</ele>
        <time>2022-05-17T12:06:48Z</time>
      </trkpt>
      <trkpt lat="44.41562" lon="5.61404">
        <ele>829.27</ele>
        <time>2022-05-17T12:07:15Z</time>
      </trkpt>
      <trkpt lat="44.41564" lon="5.61405">
        <ele>828.79</ele>
        <time>2022-05-17T12:07:45Z</time>
      </trkpt>
      <trkpt lat="44.41562" lon="5.61404">
        <ele>828.79</ele>
        <time>2022-05-17T12:07:59Z</time>
      </trkpt>
      <trkpt lat="44.4156" lon="5.61407">
        <ele>828.31</ele>
        <time>2022-05-17T12:08:16Z</time>
      </trkpt>
      <trkpt lat="44.41558" lon="5.61414">
        <ele>828.79</ele>
        <time>2022-05-17T12:08:31Z</time>
      </trkpt>
      <trkpt lat="44.4155" lon="5.61432">
        <ele>827.83</ele>
        <time>2022-05-17T12:08:48Z</time>
      </trkpt>
      <trkpt lat="44.41547" lon="5.61439">
        <ele>827.83</ele>
        <time>2022-05-17T12:09:02Z</time>
      </trkpt>
      <trkpt lat="44.41548" lon="5.61438">
        <ele>827.83</ele>
        <time>2022-05-17T12:09:19Z</time>
      </trkpt>
      <trkpt lat="44.41547" lon="5.61442">
        <ele>827.83</ele>
        <time>2022-05-17T12:09:34Z</time>
      </trkpt>
      <trkpt lat="44.41548" lon="5.61444">
        <ele>827.83</ele>
        <time>2022-05-17T12:09:46Z</time>
      </trkpt>
      <trkpt lat="44.41547" lon="5.61444">
        <ele>826.87</ele>
        <time>2022-05-17T12:10:00Z</time>
      </trkpt>
      <trkpt lat="44.4155" lon="5.61446">
        <ele>827.35</ele>
        <time>2022-05-17T12:10:17Z</time>
      </trkpt>
      <trkpt lat="44.41551" lon="5.61448">
        <ele>826.87</ele>
        <time>2022-05-17T12:10:51Z</time>
      </trkpt>
      <trkpt lat="44.4155" lon="5.61446">
        <ele>827.35</ele>
        <time>2022-05-17T12:11:24Z</time>
      </trkpt>
      <trkpt lat="44.41553" lon="5.61448">
        <ele>826.87</ele>
        <time>2022-05-17T12:11:56Z</time>
      </trkpt>
      <trkpt lat="44.41551" lon="5.61449">
        <ele>826.87</ele>
        <time>2022-05-17T12:12:30Z</time>
      </trkpt>
      <trkpt lat="44.4155" lon="5.61448">
        <ele>826.87</ele>
        <time>2022-05-17T12:12:56Z</time>
      </trkpt>
      <trkpt lat="44.41546" lon="5.61446">
        <ele>826.87</ele>
        <time>2022-05-17T12:13:30Z</time>
      </trkpt>
      <trkpt lat="44.41547" lon="5.61447">
        <ele>827.35</ele>
        <time>2022-05-17T12:14:00Z</time>
      </trkpt>
      <trkpt lat="44.41545" lon="5.61444">
        <ele>827.35</ele>
        <time>2022-05-17T12:14:30Z</time>
      </trkpt>
      <trkpt lat="44.41549" lon="5.61443">
        <ele>827.83</ele>
        <time>2022-05-17T12:14:59Z</time>
      </trkpt>
      <trkpt lat="44.41549" lon="5.61442">
        <ele>828.31</ele>
        <time>2022-05-17T12:15:31Z</time>
      </trkpt>
      <trkpt lat="44.41546" lon="5.61442">
        <ele>827.83</ele>
        <time>2022-05-17T12:16:04Z</time>
      </trkpt>
      <trkpt lat="44.41547" lon="5.61444">
        <ele>828.31</ele>
        <time>2022-05-17T12:16:43Z</time>
      </trkpt>
      <trkpt lat="44.4155" lon="5.61443">
        <ele>828.31</ele>
        <time>2022-05-17T12:17:11Z</time>
      </trkpt>
      <trkpt lat="44.41549" lon="5.61445">
        <ele>828.31</ele>
        <time>2022-05-17T12:17:42Z</time>
      </trkpt>
      <trkpt lat="44.41551" lon="5.61443">
        <ele>827.83</ele>
        <time>2022-05-17T12:18:16Z</time>
      </trkpt>
      <trkpt lat="44.41548" lon="5.61443">
        <ele>827.83</ele>
        <time>2022-05-17T12:18:55Z</time>
      </trkpt>
      <trkpt lat="44.4155" lon="5.6144">
        <ele>826.87</ele>
        <time>2022-05-17T12:19:34Z</time>
      </trkpt>
      <trkpt lat="44.41552" lon="5.61435">
        <ele>827.35</ele>
        <time>2022-05-17T12:20:01Z</time>
      </trkpt>
      <trkpt lat="44.41551" lon="5.61435">
        <ele>826.87</ele>
        <time>2022-05-17T12:20:07Z</time>
      </trkpt>
      <trkpt lat="44.41555" lon="5.61438">
        <ele>826.87</ele>
        <time>2022-05-17T12:20:10Z</time>
      </trkpt>
      <trkpt lat="44.41557" lon="5.61438">
        <ele>827.35</ele>
        <time>2022-05-17T12:20:11Z</time>
      </trkpt>
      <trkpt lat="44.41559" lon="5.61437">
        <ele>827.83</ele>
        <time>2022-05-17T12:20:12Z</time>
      </trkpt>
      <trkpt lat="44.41561" lon="5.61436">
        <ele>827.83</ele>
        <time>2022-05-17T12:20:13Z</time>
      </trkpt>
      <trkpt lat="44.41569" lon="5.61435">
        <ele>828.31</ele>
        <time>2022-05-17T12:20:17Z</time>
      </trkpt>
    </trkseg>
  </trk>
</gpx>